Flight Track Log - Related Links

Times and Time Zones

All times are in EDT time to prevent confusion due to time zone crossing. See the ZK-PBG flight status page for this flight to view local times or setup timezone preferences in your user account.

Time Position Orientation Groundspeed Altitude Reporting Facility
EDT Latitude Longitude Course Direction KTS MPH feet Rate Location/Type
Thu 07:51:53 AM -33.9400 151.1720 73° East 8 9  Level FlightAware ADS-B
Thu 07:54:03 AM -33.9400 151.1780 90° East 12 14 150 Level FlightAware ADS-B
Thu 07:54:43 AM -33.9420 151.1790 157° South 15 17 206 Level FlightAware ADS-B
Thu 07:54:58 AM -33.9440 151.1790 180° South 18 21 232 Level FlightAware ADS-B
Thu 07:55:58 AM -33.9470 151.1790 180° South 17 20 244 Level FlightAware ADS-B
Thu 07:56:23 AM -33.9490 151.1800 157° South 22 25 306 Level FlightAware ADS-B
Thu 07:56:53 AM -33.9510 151.1810 157° South 13 15 343 Level FlightAware ADS-B
Thu 07:57:18 AM -33.9510 151.1820 90° East 13 15 400 Level FlightAware ADS-B
Thu 07:57:48 AM -33.9500 151.1850 68° East 18 21 465 Level FlightAware ADS-B
Thu 07:58:18 AM -33.9500 151.1880 90° East 14 16 576 Level FlightAware ADS-B
Thu 07:58:58 AM -33.9510 151.1890 140° Southeast 37 43 758 Level FlightAware ADS-B
Thu 07:59:28 AM -33.9660 151.1930 168° South 1,309 Level FlightAware ADS-B
Thu 07:59:53 AM -33.9874 151.2022 168° South 172 198 1,200 1,680 Climbing Aus ATC (RADAR)
Thu 07:59:53 AM -33.9850 151.2000 168° South 174 200 700 400 Descending FlightAware ADS-B
Thu 08:00:08 AM -33.9920 151.2130 123° Southeast 187 215 1,300 2,438 Climbing FlightAware ADS-B
Thu 08:00:25 AM -34.0001 151.2336 123° Southeast 196 226 2,000 1,200 Climbing Aus ATC (RADAR)
Thu 08:00:38 AM -34.0050 151.2430 123° Southeast 224 258 1,900 1,737 Descending FlightAware ADS-B
Thu 08:01:03 AM -34.0270 151.2670 138° Southeast 255 293 3,100 2,850 Climbing FlightAware ADS-B
Thu 08:01:18 AM -34.0340 151.2850 115° Southeast 260 299 3,800 3,600 Climbing FlightAware ADS-B
Thu 08:01:33 AM -34.0401 151.3138 115° Southeast 265 305 4,900 3,000 Climbing Aus ATC (RADAR)
Thu 08:01:48 AM -34.0440 151.3320 115° Southeast 283 326 5,300 3,375 Climbing FlightAware ADS-B
Thu 08:02:05 AM -34.0506 151.3634 115° Southeast 285 328 6,700 3,360 Climbing Aus ATC (RADAR)
Thu 08:02:13 AM -34.0520 151.3720 115° Southeast 293 337 6,700 2,526 Level FlightAware ADS-B
Thu 08:02:43 AM -34.0630 151.4190 106° East 301 346 8,300 3,064 Climbing FlightAware ADS-B
Thu 08:03:00 AM -34.0707 151.4532 106° East 308 354 9,100 1,440 Climbing Aus ATC (RADAR)
Thu 08:03:08 AM -34.0730 151.4630 106° East 336 387 8,900 2,400 Descending FlightAware ADS-B
Thu 08:03:45 AM -34.0889 151.5378 106° East 347 399 10,900 2,533 Climbing Aus ATC (RADAR)
Thu 08:03:53 AM -34.0910 151.5480 106° East 359 413 10,800 1,674 Descending FlightAware ADS-B
Thu 08:04:28 AM -34.1060 151.6160 105° East 383 441 12,100 2,727 Climbing FlightAware ADS-B
Thu 08:05:10 AM -34.1269 151.7132 105° East 392 451 14,300 2,520 Climbing Aus ATC (RADAR)
Thu 08:05:18 AM -34.1280 151.7200 105° East 399 459 14,200 1,875 Descending FlightAware ADS-B
Thu 08:05:58 AM -34.1470 151.8070 105° East 412 474 15,800 2,893 Climbing FlightAware ADS-B
Thu 08:06:14 AM -34.1579 151.8564 105° East 409 471 16,900 2,267 Climbing Aus ATC (RADAR)
Thu 08:06:43 AM -34.1690 151.9100 105° East 424 488 17,500 1,826 Climbing FlightAware ADS-B
Thu 08:07:23 AM -34.1890 152.0010 105° East 433 498 19,000 2,100 Climbing FlightAware ADS-B
Thu 08:08:03 AM -34.2140 152.0950 108° East 447 514 20,300 2,047 Climbing FlightAware ADS-B
Thu 08:08:48 AM -34.2450 152.2030 109° East 456 525 21,900 1,906 Climbing FlightAware ADS-B
Thu 08:09:28 AM -34.2730 152.3010 109° East 463 533 23,000 2,063 Climbing FlightAware ADS-B
Thu 08:09:52 AM -34.2944 152.3745 109° East 459 528 24,100 1,500 Climbing Aus ATC (RADAR)
Thu 08:10:08 AM -34.3020 152.3990 109° East 475 547 24,000 1,500 Descending FlightAware ADS-B
Thu 08:10:24 AM -34.3176 152.4550 109° East 468 539 24,900 1,600 Climbing Aus ATC (RADAR)
Thu 08:10:53 AM -34.3360 152.5170 109° East 485 558 25,200 1,527 Climbing FlightAware ADS-B
Thu 08:11:19 AM -34.3586 152.5959 109° East 478 550 26,300 1,350 Climbing Aus ATC (RADAR)
Thu 08:11:33 AM -34.3640 152.6150 109° East 494 568 26,100 1,200 Descending FlightAware ADS-B
Thu 08:11:34 AM -34.3698 152.6351 109° East 482 555 26,600 2,118 Climbing Aus ATC (RADAR)
Thu 08:12:07 AM -34.3942 152.7218 109° East 484 557 27,300 818 Climbing Aus ATC (RADAR)
Thu 08:12:18 AM -34.3990 152.7390 109° East 501 577 27,200 1,294 Descending FlightAware ADS-B
Thu 08:12:58 AM -34.4290 152.8430 109° East 498 573 28,400 2,182 Climbing FlightAware ADS-B
Thu 08:13:24 AM -34.4537 152.9240 109° East 487 560 29,600 1,500 Climbing Aus ATC (RADAR)
Thu 08:13:38 AM -34.4590 152.9450 109° East 499 574 29,400 1,371 Descending FlightAware ADS-B
Thu 08:13:59 AM -34.4799 153.0166 109° East 490 564 30,400 1,500 Climbing Aus ATC (RADAR)
Thu 08:14:18 AM -34.4880 153.0480 109° East 499 574 30,400 1,385 Level FlightAware ADS-B
Thu 08:14:51 AM -34.5183 153.1557 109° East 486 559 31,600 1,467 Climbing Aus ATC (RADAR)
Thu 08:15:03 AM -34.5240 153.1760 109° East 500 575 31,500 1,273 Descending FlightAware ADS-B
Thu 08:15:24 AM -34.5420 153.2421 109° East 490 564 32,300 150 Climbing Aus ATC (RADAR)
Thu 08:15:43 AM -34.5490 153.2710 109° East 501 577 31,600 1,269 Descending FlightAware ADS-B
Thu 08:16:16 AM -34.5817 153.3823 109° East 488 562 33,400 2,000 Climbing Aus ATC (RADAR)
Thu 08:16:28 AM -34.5820 153.3870 109° East 504 580 33,100 638 Descending FlightAware ADS-B
Thu 08:17:03 AM -34.6110 153.4910 109° East 506 582 33,900 1,200 Climbing FlightAware ADS-B
Thu 08:17:38 AM -34.6390 153.5910 109° East 508 585 34,500 1,159 Climbing FlightAware ADS-B
Thu 08:18:31 AM -34.6821 153.7465 109° East 496 571 35,600 545 Climbing Aus ATC (RADAR)
Thu 08:18:33 AM -34.6780 153.7350 109° East 511 588 35,000 686 Descending FlightAware ADS-B
Thu 08:19:06 AM -34.7085 153.8421 109° East 499 574 36,000 960 Climbing Aus ATC (RADAR)
Thu 08:19:23 AM -34.7160 153.8730 109° East 521 600 35,800 577 Descending FlightAware ADS-B
Thu 08:19:58 AM -34.7484 153.9885 109° East 509 586 36,500 600 Climbing Aus ATC (RADAR)
Thu 08:20:03 AM -34.7470 153.9840 109° East 526 605 36,200 -300 Descending FlightAware ADS-B
Thu 08:20:38 AM -34.7720 154.0780 109° East 527 606 36,300 1,200 Climbing FlightAware ADS-B
Thu 08:20:43 AM -34.7824 154.1148 109° East 511 588 37,000 1,091 Climbing Aus ATC (RADAR)
Thu 08:21:33 AM -34.8203 154.2566 109° East 515 593 37,300 -100 Climbing Aus ATC (RADAR)
Thu 08:21:43 AM -34.8200 154.2570 109° East 531 611 36,900  Descending FlightAware ADS-B
Thu 08:22:21 AM -34.8588 154.3915 109° East 512 589 37,300  Climbing Aus ATC (RADAR)
Thu 08:22:23 AM -34.8460 154.3540 109° East 531 611 36,900 -571 Descending FlightAware ADS-B
Thu 08:23:03 AM -34.8720 154.4510 108° East 531 611 36,900 400 Level FlightAware ADS-B
Thu 08:23:23 AM -34.9050 154.5694 108° East 515 593 37,300 358 Climbing Aus ATC (RADAR)
Thu 08:24:10 AM -34.9340 154.7076 104° East 511 588 37,300  Level Aus ATC (RADAR)
Thu 08:25:00 AM -34.9858 154.8449 115° Southeast 511 588 37,300  Level Aus ATC (RADAR)
Thu 08:25:47 AM -35.0168 154.9817 106° East 514 592 37,300  Level Aus ATC (RADAR)
Thu 08:26:37 AM -35.0457 155.1266 104° East 513 590 37,300  Level Aus ATC (RADAR)
Thu 08:27:27 AM -35.0834 155.2689 108° East 515 593 37,300  Level Aus ATC (RADAR)
Thu 08:27:57 AM -35.1053 155.3524 108° East 511 588 37,300 -316 Level Aus ATC (RADAR)
Thu 08:29:00 AM -35.1123 155.3793 108° East  Level FlightAware Approximate
Thu 08:36:00 AM -35.1589 155.5585 108° East  Level FlightAware Approximate
Thu 08:37:00 AM -35.1655 155.5841 108° East  Level FlightAware Approximate
Thu 08:38:00 AM -35.1721 155.6098 108° East  Level FlightAware Approximate
Thu 08:39:00 AM -35.1788 155.6354 108° East  Level FlightAware Approximate
Thu 08:40:00 AM -35.1854 155.6610 108° East  Level FlightAware Approximate
Thu 08:41:00 AM -35.1920 155.6867 108° East  Level FlightAware Approximate
Thu 08:42:00 AM -35.1986 155.7123 107° East  Level FlightAware Approximate
Thu 08:43:00 AM -35.2052 155.7379 107° East  Level FlightAware Approximate
Thu 08:44:00 AM -35.2118 155.7636 107° East  Level FlightAware Approximate
Thu 08:45:00 AM -35.2183 155.7893 107° East  Level FlightAware Approximate
Thu 08:46:00 AM -35.2249 155.8149 107° East  Level FlightAware Approximate
Thu 08:47:00 AM -35.2315 155.8406 107° East  Level FlightAware Approximate
Thu 08:48:00 AM -35.2381 155.8663 107° East  Level FlightAware Approximate
Thu 08:49:00 AM -35.2446 155.8919 107° East  Level FlightAware Approximate
Thu 08:50:00 AM -35.2512 155.9176 107° East  Level FlightAware Approximate
Thu 08:51:00 AM -35.2577 155.9433 107° East  Level FlightAware Approximate
Thu 08:52:00 AM -35.2643 155.9690 107° East  Level FlightAware Approximate
Thu 08:53:00 AM -35.2708 155.9946 107° East  Level FlightAware Approximate
Thu 08:54:00 AM -35.2774 156.0203 107° East  Level FlightAware Approximate
Thu 08:55:00 AM -35.2839 156.0460 107° East  Level FlightAware Approximate
Thu 08:56:00 AM -35.2904 156.0717 107° East  Level FlightAware Approximate
Thu 08:57:00 AM -35.2969 156.0974 107° East  Level FlightAware Approximate
Thu 08:58:00 AM -35.3035 156.1232 107° East  Level FlightAware Approximate
Thu 08:59:00 AM -35.3100 156.1489 107° East  Level FlightAware Approximate
Thu 09:00:00 AM -35.3165 156.1746 107° East  Level FlightAware Approximate
Thu 09:01:00 AM -35.3230 156.2003 107° East  Level FlightAware Approximate
Thu 09:02:00 AM -35.3294 156.2260 107° East  Level FlightAware Approximate
Thu 09:03:00 AM -35.3359 156.2518 107° East  Level FlightAware Approximate
Thu 09:04:00 AM -35.3424 156.2775 107° East  Level FlightAware Approximate
Thu 09:05:00 AM -35.3489 156.3032 107° East  Level FlightAware Approximate
Thu 09:06:00 AM -35.3554 156.3290 107° East  Level FlightAware Approximate
Thu 09:07:00 AM -35.3618 156.3547 107° East  Level FlightAware Approximate
Thu 09:08:00 AM -35.3683 156.3805 107° East  Level FlightAware Approximate
Thu 09:09:00 AM -35.3747 156.4062 107° East  Level FlightAware Approximate
Thu 09:10:00 AM -35.3812 156.4320 107° East  Level FlightAware Approximate
Thu 09:11:00 AM -35.3876 156.4577 107° East  Level FlightAware Approximate
Thu 09:12:00 AM -35.3941 156.4835 107° East  Level FlightAware Approximate
Thu 09:13:00 AM -35.4005 156.5093 107° East  Level FlightAware Approximate
Thu 09:14:00 AM -35.4069 156.5351 107° East  Level FlightAware Approximate
Thu 09:15:00 AM -35.4134 156.5608 107° East  Level FlightAware Approximate
Thu 09:16:00 AM -35.4198 156.5866 107° East  Level FlightAware Approximate
Thu 09:17:00 AM -35.4262 156.6124 107° East  Level FlightAware Approximate
Thu 09:18:00 AM -35.4326 156.6382 107° East  Level FlightAware Approximate
Thu 09:19:00 AM -35.4390 156.6640 107° East  Level FlightAware Approximate
Thu 09:20:00 AM -35.4454 156.6898 107° East  Level FlightAware Approximate
Thu 09:21:00 AM -35.4518 156.7156 107° East  Level FlightAware Approximate
Thu 09:22:00 AM -35.4581 156.7414 107° East  Level FlightAware Approximate
Thu 09:23:00 AM -35.4645 156.7672 107° East  Level FlightAware Approximate
Thu 09:24:00 AM -35.4709 156.7930 107° East  Level FlightAware Approximate
Thu 09:25:00 AM -35.4773 156.8189 107° East  Level FlightAware Approximate
Thu 09:26:00 AM -35.4836 156.8447 107° East  Level FlightAware Approximate
Thu 09:27:00 AM -35.4900 156.8705 107° East  Level FlightAware Approximate
Thu 09:28:00 AM -35.4963 156.8963 107° East  Level FlightAware Approximate
Thu 09:29:00 AM -35.5027 156.9222 107° East  Level FlightAware Approximate
Thu 09:30:00 AM -35.5090 156.9480 107° East  Level FlightAware Approximate
Thu 09:31:00 AM -35.5154 156.9739 107° East  Level FlightAware Approximate
Thu 09:32:00 AM -35.5217 156.9997 107° East  Level FlightAware Approximate
Thu 09:33:00 AM -35.5280 157.0256 107° East  Level FlightAware Approximate
Thu 09:34:00 AM -35.5343 157.0514 107° East  Level FlightAware Approximate
Thu 09:35:00 AM -35.5406 157.0773 107° East  Level FlightAware Approximate
Thu 09:36:00 AM -35.5469 157.1031 107° East  Level FlightAware Approximate
Thu 09:37:00 AM -35.5532 157.1290 107° East  Level FlightAware Approximate
Thu 09:38:00 AM -35.5595 157.1549 107° East  Level FlightAware Approximate
Thu 09:39:00 AM -35.5658 157.1808 107° East  Level FlightAware Approximate
Thu 09:40:00 AM -35.5721 157.2066 107° East  Level FlightAware Approximate
Thu 09:41:00 AM -35.5784 157.2325 107° East  Level FlightAware Approximate
Thu 09:42:00 AM -35.5846 157.2584 107° East  Level FlightAware Approximate
Thu 09:43:00 AM -35.5909 157.2843 107° East  Level FlightAware Approximate
Thu 09:44:00 AM -35.5972 157.3102 107° East  Level FlightAware Approximate
Thu 09:45:00 AM -35.6034 157.3361 107° East  Level FlightAware Approximate
Thu 09:46:00 AM -35.6097 157.3620 107° East  Level FlightAware Approximate
Thu 09:47:00 AM -35.6159 157.3879 107° East  Level FlightAware Approximate
Thu 09:48:00 AM -35.6222 157.4138 107° East  Level FlightAware Approximate
Thu 09:49:00 AM -35.6284 157.4398 106° East  Level FlightAware Approximate
Thu 09:50:00 AM -35.6346 157.4657 106° East  Level FlightAware Approximate
Thu 09:51:00 AM -35.6409 157.4916 106° East  Level FlightAware Approximate
Thu 09:52:00 AM -35.6471 157.5175 106° East  Level FlightAware Approximate
Thu 09:53:00 AM -35.6533 157.5435 106° East  Level FlightAware Approximate
Thu 09:54:00 AM -35.6595 157.5694 106° East  Level FlightAware Approximate
Thu 09:55:00 AM -35.6657 157.5954 106° East  Level FlightAware Approximate
Thu 09:56:00 AM -35.6719 157.6213 106° East  Level FlightAware Approximate
Thu 09:57:00 AM -35.6781 157.6473 106° East  Level FlightAware Approximate
Thu 09:58:00 AM -35.6843 157.6732 106° East  Level FlightAware Approximate
Thu 09:59:00 AM -35.6904 157.6992 106° East  Level FlightAware Approximate
Thu 10:00:00 AM -35.6966 157.7251 106° East  Level FlightAware Approximate
Thu 10:01:00 AM -35.7028 157.7511 106° East  Level FlightAware Approximate
Thu 10:02:00 AM -35.7089 157.7771 106° East  Level FlightAware Approximate
Thu 10:03:00 AM -35.7151 157.8030 106° East  Level FlightAware Approximate
Thu 10:04:00 AM -35.7212 157.8290 106° East  Level FlightAware Approximate
Thu 10:05:00 AM -35.7274 157.8550 106° East  Level FlightAware Approximate
Thu 10:06:00 AM -35.7335 157.8810 106° East  Level FlightAware Approximate
Thu 10:07:00 AM -35.7397 157.9070 106° East  Level FlightAware Approximate
Thu 10:08:00 AM -35.7458 157.9330 106° East  Level FlightAware Approximate
Thu 10:09:00 AM -35.7519 157.9590 106° East  Level FlightAware Approximate
Thu 10:10:00 AM -35.7580 157.9850 106° East  Level FlightAware Approximate
Thu 10:11:00 AM -35.7641 158.0110 106° East  Level FlightAware Approximate
Thu 10:12:00 AM -35.7702 158.0370 106° East  Level FlightAware Approximate
Thu 10:13:00 AM -35.7763 158.0630 106° East  Level FlightAware Approximate
Thu 10:14:00 AM -35.7808 158.0820 108° East  Level FlightAware Approximate
Thu 10:15:00 AM -35.7847 158.1087 108° East  Level Estimated
Thu 10:16:00 AM -35.7808 158.0820 108° East  Level FlightAware Approximate
Thu 10:17:00 AM -35.7847 158.1087 108° East  Level Estimated
Thu 10:18:00 AM -35.7808 158.0820 108° East  Level FlightAware Approximate
Thu 10:19:00 AM -35.7847 158.1087 108° East  Level Estimated
Thu 10:20:00 AM -35.7808 158.0820 108° East  Level FlightAware Approximate
Thu 10:21:00 AM -35.7847 158.1087 108° East  Level Estimated
Thu 10:22:00 AM -35.7808 158.0820 108° East  Level FlightAware Approximate
Thu 10:23:00 AM -35.7847 158.1087 108° East  Level Estimated
Thu 10:23:53 AM -37.0820 174.4860 108° East 157 181 500  Level FlightAware ADS-B
Thu 10:24:00 AM -35.7808 158.0820 108° East  Level FlightAware Approximate
Thu 10:24:23 AM -37.0230 174.7460 74° East 148 170 100  Level FlightAware ADS-B
Thu 10:24:48 AM -37.0180 174.7660 73° East 148 170 100  Level FlightAware ADS-B
Thu 10:27:00 AM -37.0081 174.7917 272° West  Level Estimated
Thu 10:28:00 AM -37.0081 174.7917 272° West  Level Estimated
Thu 10:29:00 AM -37.0081 174.7917 272° West  Level Estimated
Thu 10:30:00 AM -37.0081 174.7917 272° West  Level Estimated
Thu 10:31:00 AM -37.0081 174.7917 272° West  Level Estimated
Thu 10:32:00 AM -37.0081 174.7917 272° West  Level Estimated
Thu 10:33:00 AM -37.0081 174.7917 272° West  Level Estimated
Thu 10:34:00 AM -37.0081 174.7917 272° West  Level Estimated
Thu 10:35:00 AM -37.0081 174.7917 272° West  Level Estimated
Thu 10:36:00 AM -37.0081 174.7917 272° West  Level Estimated
Thu 10:37:00 AM -37.0081 174.7917 272° West  Level Estimated
Thu 10:38:00 AM -37.0081 174.7917 272° West  Level Estimated
Thu 10:39:00 AM -37.0081 174.7917 272° West  Level Estimated
Thu 10:40:00 AM -37.0081 174.7917 272° West  Level Estimated
Thu 10:41:00 AM -37.0081 174.7917 272° West  Level Estimated
Thu 10:42:00 AM -37.0081 174.7917 272° West  Level Estimated
Thu 10:43:00 AM -37.0081 174.7917 272° West  Level Estimated
Thu 10:44:00 AM -37.0081 174.7917 272° West  Level Estimated
Thu 10:45:00 AM -37.0081 174.7917 272° West  Level Estimated
Thu 10:46:00 AM -37.0081 174.7917 272° West  Level Estimated
Thu 10:47:00 AM -37.0081 174.7917 272° West  Level Estimated
Thu 10:48:00 AM -37.0081 174.7917 272° West  Level Estimated
Thu 10:49:00 AM -37.0081 174.7917 272° West  Level Estimated
Thu 10:50:00 AM -37.0081 174.7917 272° West  Level Estimated
Thu 10:51:00 AM -37.0081 174.7917 272° West  Level Estimated
Thu 10:52:00 AM -37.0081 174.7917 272° West  Level Estimated
Thu 10:53:00 AM -37.0081 174.7917 272° West  Level Estimated
Thu 10:54:00 AM -37.0081 174.7917 272° West  Level Estimated
Thu 10:55:00 AM -37.0081 174.7917 272° West  Level Estimated
Thu 10:56:00 AM -37.0081 174.7917 272° West  Level Estimated
Thu 10:57:00 AM -37.0081 174.7917 272° West  Level Estimated
Thu 10:58:00 AM -37.0081 174.7917 272° West  Level Estimated
Thu 10:59:00 AM -37.0081 174.7917 272° West  Level Estimated
Thu 11:00:00 AM -37.0081 174.7917 272° West  Level Estimated
Thu 11:01:00 AM -37.0081 174.7917 272° West  Level Estimated
Thu 11:02:00 AM -37.0081 174.7917 272° West  Level Estimated
Thu 11:03:00 AM -37.0081 174.7917 272° West  Level Estimated
Thu 11:04:00 AM -37.0081 174.7917 272° West  Level Estimated
Thu 11:05:00 AM -37.0081 174.7917 272° West  Level Estimated
Thu 11:06:00 AM -37.0081 174.7917 272° West  Level Estimated
Thu 11:07:00 AM -37.0081 174.7917 272° West  Level Estimated
Thu 11:08:00 AM -37.0081 174.7917 272° West  Level Estimated
Thu 11:09:00 AM -37.0081 174.7917 272° West  Level Estimated
Thu 11:10:00 AM -37.0081 174.7917 272° West  Level Estimated
Thu 11:11:00 AM -37.0081 174.7917 272° West  Level Estimated
Thu 11:12:00 AM -37.0081 174.7917 272° West  Level Estimated
Thu 11:13:00 AM -37.0081 174.7917 272° West  Level Estimated
Thu 11:14:00 AM -37.0081 174.7917 272° West  Level Estimated
Thu 11:15:00 AM -37.0081 174.7917 272° West  Level Estimated
Thu 11:16:00 AM -37.0081 174.7917 272° West  Level Estimated
Thu 11:17:00 AM -37.0081 174.7917 272° West  Level Estimated
Thu 11:18:00 AM -37.0081 174.7917 272° West  Level Estimated
Thu 11:19:00 AM -37.0081 174.7917 272° West  Level Estimated
Thu 11:20:00 AM -37.0081 174.7917 272° West  Level Estimated
Thu 11:21:00 AM -37.0081 174.7917 272° West  Level Estimated
Thu 11:22:00 AM -37.0081 174.7917 272° West  Level Estimated
Thu 11:23:00 AM -37.0081 174.7917 272° West  Level Estimated
Thu 11:24:00 AM -37.0081 174.7917 272° West  Level Estimated
Thu 11:25:00 AM -37.0081 174.7917 272° West  Level Estimated
Thu 11:26:00 AM -37.0081 174.7917 272° West  Level Estimated
Thu 11:27:00 AM -37.0081 174.7917 272° West  Level Estimated
Thu 11:28:00 AM -37.0081 174.7917 272° West  Level Estimated
Thu 11:29:00 AM -37.0081 174.7917 272° West  Level Estimated
Thu 11:30:00 AM -37.0081 174.7917 272° West  Level Estimated
Thu 11:31:00 AM -37.0081 174.7917 272° West  Level Estimated
Thu 11:32:00 AM -37.0081 174.7917 272° West  Level Estimated
Thu 11:33:00 AM -37.0081 174.7917 272° West  Level Estimated
Thu 11:34:00 AM -37.0081 174.7917 272° West  Level Estimated
Thu 11:35:00 AM -37.0081 174.7917 272° West  Level Estimated
Thu 11:36:00 AM -37.0081 174.7917 272° West  Level Estimated
Thu 11:37:00 AM -37.0081 174.7917 272° West  Level Estimated
Thu 11:38:00 AM -37.0081 174.7917 272° West  Level Estimated
Thu 11:39:00 AM -37.0081 174.7917 272° West  Level Estimated
Thu 11:40:00 AM -37.0081 174.7917 272° West  Level Estimated
Thu 11:41:00 AM -37.0081 174.7917 272° West  Level Estimated
Thu 11:42:00 AM -37.0081 174.7917 272° West  Level Estimated
Thu 11:43:00 AM -37.0081 174.7917 272° West  Level Estimated
Thu 11:44:00 AM -37.0081 174.7917 272° West  Level Estimated
Thu 11:45:00 AM -37.0081 174.7917 272° West  Level Estimated
Thu 11:46:00 AM -37.0081 174.7917 272° West  Level Estimated
Thu 11:47:00 AM -37.0081 174.7917 272° West  Level Estimated
Thu 11:48:00 AM -37.0081 174.7917 272° West  Level Estimated
Thu 11:49:00 AM -37.0081 174.7917 272° West  Level Estimated
Thu 11:50:00 AM -37.0081 174.7917 272° West  Level Estimated
Thu 11:51:00 AM -37.0081 174.7917 272° West  Level Estimated
Thu 11:52:00 AM -37.0081 174.7917 272° West  Level Estimated
Thu 11:53:00 AM -37.0081 174.7917 272° West  Level Estimated
Thu 11:54:00 AM -37.0081 174.7917 272° West  Level Estimated
Thu 11:55:00 AM -37.0081 174.7917 272° West  Level Estimated
Thu 11:56:00 AM -37.0081 174.7917 272° West  Level Estimated
Thu 11:57:00 AM -37.0081 174.7917 272° West  Level Estimated
Thu 11:58:00 AM -37.0081 174.7917 272° West  Level Estimated
Thu 11:59:00 AM -37.0081 174.7917 272° West  Level Estimated
Thu 12:00:00 PM -37.0081 174.7917 272° West  Level Estimated
Thu 12:01:00 PM -37.0081 174.7917 272° West  Level Estimated
Thu 12:02:00 PM -37.0081 174.7917 272° West  Level Estimated
Thu 12:03:00 PM -37.0081 174.7917 272° West  Level Estimated
Thu 12:04:00 PM -37.0081 174.7917 272° West  Level Estimated
Thu 12:05:00 PM -37.0081 174.7917 272° West  Level Estimated
Thu 12:06:00 PM -37.0081 174.7917 272° West  Level Estimated
Thu 12:07:00 PM -37.0081 174.7917 272° West  Level Estimated
Thu 12:08:00 PM -37.0081 174.7917 272° West  Level Estimated
Thu 12:09:00 PM -37.0081 174.7917 272° West  Level Estimated
Thu 12:10:00 PM -37.0081 174.7917 272° West  Level Estimated
Thu 12:11:00 PM -37.0081 174.7917 272° West  Level Estimated
Thu 12:12:00 PM -37.0081 174.7917 272° West  Level Estimated
Thu 12:13:00 PM -37.0081 174.7917 272° West  Level Estimated
Thu 12:14:00 PM -37.0081 174.7917 272° West  Level Estimated
Thu 12:15:00 PM -37.0081 174.7917 272° West  Level Estimated
Thu 12:16:00 PM -37.0081 174.7917 272° West  Level Estimated
Thu 12:17:00 PM -37.0081 174.7917 272° West  Level Estimated
Thu 12:18:00 PM -37.0081 174.7917 272° West  Level Estimated
Thu 12:19:00 PM -37.0081 174.7917 272° West  Level Estimated
Thu 12:20:00 PM -37.0081 174.7917 272° West  Level Estimated
Thu 12:21:00 PM -37.0081 174.7917 272° West  Level Estimated
Thu 12:22:00 PM -37.0081 174.7917 272° West  Level Estimated
Thu 12:23:00 PM -37.0081 174.7917 272° West  Level Estimated
Thu 12:24:00 PM -37.0081 174.7917 272° West  Level Estimated
Thu 12:25:00 PM -37.0081 174.7917 272° West  Level Estimated
Thu 12:26:00 PM -37.0081 174.7917 272° West  Level Estimated
Thu 12:27:00 PM -37.0081 174.7917 272° West  Level Estimated
Thu 12:28:00 PM -37.0081 174.7917 272° West  Level Estimated
Thu 12:29:00 PM -37.0081 174.7917 272° West  Level Estimated
Thu 12:30:00 PM -37.0081 174.7917 272° West  Level Estimated
Thu 12:31:00 PM -37.0081 174.7917 272° West  Level Estimated
Thu 12:32:00 PM -37.0081 174.7917 272° West  Level Estimated
Thu 12:33:00 PM -37.0081 174.7917 272° West  Level Estimated
Thu 12:34:00 PM -37.0081 174.7917 272° West  Level Estimated
Thu 12:35:00 PM -37.0081 174.7917 272° West  Level Estimated
Thu 12:36:00 PM -37.0081 174.7917 272° West  Level Estimated
Thu 12:37:00 PM -37.0081 174.7917 272° West  Level Estimated
Thu 12:38:00 PM -37.0081 174.7917 272° West  Level Estimated
Thu 12:39:00 PM -37.0081 174.7917 272° West  Level Estimated
Thu 12:40:00 PM -37.0081 174.7917 272° West  Level Estimated
Thu 12:41:00 PM -37.0081 174.7917 272° West  Level Estimated
Thu 12:42:00 PM -37.0081 174.7917 272° West  Level Estimated
Thu 12:43:00 PM -37.0081 174.7917 272° West  Level Estimated
Thu 12:44:00 PM -37.0081 174.7917 272° West  Level Estimated
Thu 12:45:00 PM -37.0081 174.7917 272° West  Level Estimated
Thu 12:46:00 PM -37.0081 174.7917 272° West  Level Estimated
Thu 12:47:00 PM -37.0081 174.7917 272° West  Level Estimated
Thu 12:48:00 PM -37.0081 174.7917 272° West  Level Estimated
Thu 12:49:00 PM -37.0081 174.7917 272° West  Level Estimated
Thu 12:50:00 PM -37.0081 174.7917 272° West  Level Estimated
Thu 12:51:00 PM -37.0081 174.7917 272° West  Level Estimated
Thu 12:52:00 PM -37.0081 174.7917 272° West  Level Estimated
Thu 12:53:00 PM -37.0081 174.7917 272° West  Level Estimated
Thu 12:54:00 PM -37.0081 174.7917 272° West  Level Estimated
Thu 12:55:00 PM -37.0081 174.7917 272° West  Level Estimated
Thu 12:56:00 PM -37.0081 174.7917 272° West  Level Estimated
Thu 12:57:00 PM -37.0081 174.7917 272° West  Level Estimated
Thu 12:58:00 PM -37.0081 174.7917 272° West  Level Estimated
Thu 12:59:00 PM -37.0081 174.7917 272° West  Level Estimated
Thu 01:00:00 PM -37.0081 174.7917 272° West  Level Estimated
Thu 01:01:00 PM -37.0081 174.7917 272° West  Level Estimated
Thu 01:02:00 PM -37.0081 174.7917 272° West  Level Estimated
Thu 01:03:00 PM -37.0081 174.7917 272° West  Level Estimated
Thu 01:04:00 PM -37.0081 174.7917 272° West  Level Estimated
Thu 01:05:00 PM -37.0081 174.7917 272° West  Level Estimated
Thu 01:06:00 PM -37.0081 174.7917 272° West  Level Estimated
Thu 01:07:00 PM -37.0081 174.7917 272° West  Level Estimated
Thu 01:08:00 PM -37.0081 174.7917 272° West  Level Estimated
Thu 01:09:00 PM -37.0081 174.7917 272° West  Level Estimated
Thu 01:10:00 PM -37.0081 174.7917 272° West  Level Estimated
Thu 01:11:00 PM -37.0081 174.7917 272° West  Level Estimated
Thu 01:12:00 PM -37.0081 174.7917 272° West  Level Estimated
Thu 01:13:00 PM -37.0081 174.7917 272° West  Level Estimated
Thu 01:14:00 PM -37.0081 174.7917 272° West  Level Estimated
Thu 01:15:00 PM -37.0081 174.7917 272° West  Level Estimated
Thu 01:16:00 PM -37.0081 174.7917 272° West  Level Estimated
Thu 01:17:00 PM -37.0081 174.7917 272° West  Level Estimated
Thu 01:18:00 PM -37.0081 174.7917 272° West  Level Estimated
Thu 01:19:00 PM -37.0081 174.7917 272° West  Level Estimated
Thu 01:20:00 PM -37.0081 174.7917 272° West  Level Estimated
Thu 01:21:00 PM -37.0081 174.7917 272° West  Level Estimated
Thu 01:22:00 PM -37.0081 174.7917 272° West  Level Estimated
Thu 01:23:00 PM -37.0081 174.7917 272° West  Level Estimated
Thu 01:24:00 PM -37.0081 174.7917 272° West  Level Estimated
Thu 01:25:00 PM -37.0081 174.7917 272° West  Level Estimated
Thu 01:26:00 PM -37.0081 174.7917 272° West  Level Estimated
Thu 01:27:00 PM -37.0081 174.7917 272° West  Level Estimated
Thu 01:28:00 PM -37.0081 174.7917 272° West  Level Estimated
Thu 01:29:00 PM -37.0081 174.7917 272° West  Level Estimated
Thu 01:30:00 PM -37.0081 174.7917 272° West  Level Estimated
Thu 01:31:00 PM -37.0081 174.7917 272° West  Level Estimated
Thu 01:32:00 PM -37.0081 174.7917 272° West  Level Estimated
Thu 01:33:00 PM -37.0081 174.7917 272° West  Level Estimated
Thu 01:34:00 PM -37.0081 174.7917 272° West  Level Estimated
Thu 01:35:00 PM -37.0081 174.7917 272° West  Level Estimated
Thu 01:36:00 PM -37.0081 174.7917 272° West  Level Estimated
Thu 01:37:00 PM -37.0081 174.7917 272° West  Level Estimated
Thu 01:38:00 PM -37.0081 174.7917 272° West  Level Estimated
Thu 01:39:00 PM -37.0081 174.7917 272° West  Level Estimated
Thu 01:40:00 PM -37.0081 174.7917 272° West  Level Estimated
Thu 01:41:00 PM -37.0081 174.7917 272° West  Level Estimated
Thu 01:42:00 PM -37.0081 174.7917 272° West  Level Estimated
Thu 01:43:00 PM -37.0081 174.7917 272° West  Level Estimated
Thu 01:44:00 PM -37.0081 174.7917 272° West  Level Estimated
Thu 01:45:00 PM -37.0081 174.7917 272° West  Level Estimated
Thu 01:46:00 PM -37.0081 174.7917 272° West  Level Estimated
Thu 01:47:00 PM -37.0081 174.7917 272° West  Level Estimated
Thu 01:48:00 PM -37.0081 174.7917 272° West  Level Estimated
Thu 01:49:00 PM -37.0081 174.7917 272° West  Level Estimated
Thu 01:50:00 PM -37.0081 174.7917 272° West  Level Estimated
Thu 01:51:00 PM -37.0081 174.7917 272° West  Level Estimated
Thu 01:52:00 PM -37.0081 174.7917 272° West  Level Estimated
Thu 01:53:00 PM -37.0081 174.7917 272° West  Level Estimated
Thu 01:54:00 PM -37.0081 174.7917 272° West  Level Estimated
Thu 01:55:00 PM -37.0081 174.7917 272° West  Level Estimated
Thu 01:56:00 PM -37.0081 174.7917 272° West  Level Estimated
Thu 01:57:00 PM -37.0081 174.7917 272° West  Level Estimated
Thu 01:58:00 PM -37.0081 174.7917 272° West  Level Estimated
Thu 01:59:00 PM -37.0081 174.7917 272° West  Level Estimated
Thu 02:00:00 PM -37.0081 174.7917 272° West  Level Estimated
Thu 02:01:00 PM -37.0081 174.7917 272° West  Level Estimated
Thu 02:02:00 PM -37.0081 174.7917 272° West  Level Estimated
Thu 02:03:00 PM -37.0081 174.7917 272° West  Level Estimated
Thu 02:04:00 PM -37.0081 174.7917 272° West  Level Estimated
Thu 02:05:00 PM -37.0081 174.7917 272° West  Level Estimated
Thu 02:06:00 PM -37.0081 174.7917 272° West  Level Estimated
Thu 02:07:00 PM -37.0081 174.7917 272° West  Level Estimated
Thu 02:08:00 PM -37.0081 174.7917 272° West  Level Estimated
Thu 02:09:00 PM -37.0081 174.7917 272° West  Level Estimated
Thu 02:10:00 PM -37.0081 174.7917 272° West  Level Estimated
Thu 02:11:00 PM -37.0081 174.7917 272° West  Level Estimated
Thu 02:12:00 PM -37.0081 174.7917 272° West  Level Estimated
Thu 02:13:00 PM -37.0081 174.7917 272° West  Level Estimated
Thu 02:14:00 PM -37.0081 174.7917 272° West  Level Estimated
Thu 02:15:00 PM -37.0081 174.7917 272° West  Level Estimated
Thu 02:16:00 PM -37.0081 174.7917 272° West  Level Estimated
Thu 02:17:00 PM -37.0081 174.7917 272° West  Level Estimated
Thu 02:18:00 PM -37.0081 174.7917 272° West  Level Estimated
Thu 02:19:00 PM -37.0081 174.7917 272° West  Level Estimated
Thu 02:20:00 PM -37.0081 174.7917 272° West  Level Estimated
Thu 02:21:00 PM -37.0081 174.7917 272° West  Level Estimated
Thu 02:22:00 PM -37.0081 174.7917 272° West  Level Estimated
Thu 02:23:00 PM -37.0081 174.7917 272° West  Level Estimated
Thu 02:24:00 PM -37.0081 174.7917 272° West  Level Estimated
Thu 02:25:00 PM -37.0081 174.7917 272° West  Level Estimated
Thu 02:26:00 PM -37.0081 174.7917 272° West  Level Estimated
Thu 02:27:00 PM -37.0081 174.7917 272° West  Level Estimated
Thu 02:28:00 PM -37.0081 174.7917 272° West  Level Estimated
Thu 02:29:00 PM -37.0081 174.7917 272° West  Level Estimated
Thu 02:30:00 PM -37.0081 174.7917 272° West  Level Estimated
Thu 02:31:00 PM -37.0081 174.7917 272° West  Level Estimated
Thu 02:32:00 PM -37.0081 174.7917 272° West  Level Estimated
Thu 02:33:00 PM -37.0081 174.7917 272° West  Level Estimated
Thu 02:34:00 PM -37.0081 174.7917 272° West  Level Estimated
Thu 02:35:00 PM -37.0081 174.7917 272° West  Level Estimated
Thu 02:36:00 PM -37.0081 174.7917 272° West  Level Estimated
Thu 02:37:00 PM -37.0081 174.7917 272° West  Level Estimated
Thu 02:38:00 PM -37.0081 174.7917 272° West  Level Estimated
Thu 02:39:00 PM -37.0081 174.7917 272° West  Level Estimated
Thu 02:40:00 PM -37.0081 174.7917 272° West  Level Estimated
Thu 02:41:00 PM -37.0081 174.7917 272° West  Level Estimated
Thu 02:42:00 PM -37.0081 174.7917 272° West  Level Estimated
Thu 02:43:00 PM -37.0081 174.7917 272° West  Level Estimated
Thu 02:44:00 PM -37.0081 174.7917 272° West  Level Estimated
Thu 02:45:00 PM -37.0081 174.7917 272° West  Level Estimated
Thu 02:46:00 PM -37.0081 174.7917 272° West  Level Estimated
Thu 02:47:00 PM -37.0081 174.7917 272° West  Level Estimated
Thu 02:48:00 PM -37.0081 174.7917 272° West  Level Estimated
Thu 02:49:00 PM -37.0081 174.7917 272° West  Level Estimated
Thu 02:50:00 PM -37.0081 174.7917 272° West  Level Estimated
Thu 02:51:00 PM -37.0081 174.7917 272° West  Level Estimated
Thu 02:52:00 PM -37.0081 174.7917 272° West  Level Estimated
Thu 02:53:00 PM -37.0081 174.7917 272° West  Level Estimated
Thu 02:54:00 PM -37.0081 174.7917 272° West  Level Estimated
Thu 02:55:00 PM -37.0081 174.7917 272° West  Level Estimated
Thu 02:56:00 PM -37.0081 174.7917 272° West  Level Estimated
Thu 02:57:00 PM -37.0081 174.7917 272° West  Level Estimated
Thu 02:58:00 PM -37.0081 174.7917 272° West  Level Estimated
Thu 02:59:00 PM -37.0081 174.7917 272° West  Level Estimated
Thu 03:00:00 PM -37.0081 174.7917 272° West  Level Estimated
Thu 03:01:00 PM -37.0081 174.7917 272° West  Level Estimated
Thu 03:02:00 PM -37.0081 174.7917 272° West  Level Estimated
Thu 03:03:00 PM -37.0081 174.7917 272° West  Level Estimated
Thu 03:04:00 PM -37.0081 174.7917 272° West  Level Estimated
Thu 03:05:00 PM -37.0081 174.7917 272° West  Level Estimated
Thu 03:06:00 PM -37.0081 174.7917 272° West  Level Estimated
Thu 03:07:00 PM -37.0081 174.7917 272° West  Level Estimated
Thu 03:08:00 PM -37.0081 174.7917 272° West  Level Estimated
Thu 03:09:00 PM -37.0081 174.7917 272° West  Level Estimated
Thu 03:10:00 PM -37.0081 174.7917 272° West  Level Estimated
Thu 03:11:00 PM -37.0081 174.7917 272° West  Level Estimated
Thu 03:12:00 PM -37.0081 174.7917 272° West  Level Estimated
Thu 03:13:00 PM -37.0081 174.7917 272° West  Level Estimated
Thu 03:14:00 PM -37.0081 174.7917 272° West  Level Estimated
Thu 03:15:00 PM -37.0081 174.7917 272° West  Level Estimated
Thu 03:16:00 PM -37.0081 174.7917 272° West  Level Estimated
Thu 03:17:00 PM -37.0081 174.7917 272° West  Level Estimated
Thu 03:18:00 PM -37.0081 174.7917 272° West  Level Estimated
Thu 03:19:00 PM -37.0081 174.7917 272° West  Level Estimated
Thu 03:20:00 PM -37.0081 174.7917 272° West  Level Estimated
Thu 03:21:00 PM -37.0081 174.7917 272° West  Level Estimated
Thu 03:22:00 PM -37.0081 174.7917 272° West  Level Estimated
Thu 03:23:00 PM -37.0081 174.7917 272° West  Level Estimated
Thu 03:24:00 PM -37.0081 174.7917 272° West  Level Estimated
Thu 03:25:00 PM -37.0081 174.7917 272° West  Level Estimated
Thu 03:26:00 PM -37.0081 174.7917 272° West  Level Estimated
Thu 03:27:00 PM -37.0081 174.7917 272° West  Level Estimated
Thu 03:28:00 PM -37.0081 174.7917 272° West  Level Estimated
Thu 03:29:00 PM -37.0081 174.7917 272° West  Level Estimated
Thu 03:30:00 PM -37.0081 174.7917 272° West  Level Estimated
Thu 03:31:00 PM -37.0081 174.7917 272° West  Level Estimated
Thu 03:32:00 PM -37.0081 174.7917 272° West  Level Estimated
Thu 03:33:00 PM -37.0081 174.7917 272° West  Level Estimated
Thu 03:34:00 PM -37.0081 174.7917 272° West  Level Estimated
Thu 03:35:00 PM -37.0081 174.7917 272° West  Level Estimated
Thu 03:36:00 PM -37.0081 174.7917 272° West  Level Estimated
Thu 03:37:00 PM -37.0081 174.7917 272° West  Level Estimated
Thu 03:38:00 PM -37.0081 174.7917 272° West  Level Estimated
Thu 03:39:00 PM -37.0081 174.7917 272° West  Level Estimated
Thu 03:40:00 PM -37.0081 174.7917 272° West  Level Estimated
Thu 03:41:00 PM -37.0081 174.7917 272° West  Level Estimated
Thu 03:42:00 PM -37.0081 174.7917 272° West  Level Estimated
Thu 03:43:00 PM -37.0081 174.7917 272° West  Level Estimated
Thu 03:44:00 PM -37.0081 174.7917 272° West  Level Estimated
Thu 03:45:00 PM -37.0081 174.7917 272° West  Level Estimated
Thu 03:46:00 PM -37.0081 174.7917 272° West  Level Estimated
Thu 03:47:00 PM -37.0081 174.7917 272° West  Level Estimated
Thu 03:48:00 PM -37.0081 174.7917 272° West  Level Estimated
Thu 03:49:00 PM -37.0081 174.7917 272° West  Level Estimated
Thu 03:50:00 PM -37.0081 174.7917 272° West  Level Estimated
Thu 03:51:00 PM -37.0081 174.7917 272° West  Level Estimated
Thu 03:52:00 PM -37.0081 174.7917 272° West  Level Estimated
Thu 03:53:00 PM -37.0081 174.7917 272° West  Level Estimated
Thu 03:54:00 PM -37.0081 174.7917 272° West  Level Estimated
Thu 03:55:00 PM -37.0081 174.7917 272° West  Level Estimated
Thu 03:56:00 PM -37.0081 174.7917 272° West  Level Estimated
Thu 03:57:00 PM -37.0081 174.7917 272° West  Level Estimated
Thu 03:58:00 PM -37.0081 174.7917 272° West  Level Estimated
Thu 03:59:00 PM -37.0081 174.7917 272° West  Level Estimated
Thu 04:00:00 PM -37.0081 174.7917 272° West  Level Estimated
Thu 04:01:00 PM -37.0081 174.7917 272° West  Level Estimated
Thu 04:02:00 PM -37.0081 174.7917 272° West  Level Estimated
Thu 04:03:00 PM -37.0081 174.7917 272° West  Level Estimated
Thu 04:04:00 PM -37.0081 174.7917 272° West  Level Estimated
Thu 04:05:00 PM -37.0081 174.7917 272° West  Level Estimated
Thu 04:06:00 PM -37.0081 174.7917 272° West  Level Estimated
Thu 04:07:00 PM -37.0081 174.7917 272° West  Level Estimated
Thu 04:08:00 PM -37.0081 174.7917 272° West  Level Estimated
Thu 04:09:00 PM -37.0081 174.7917 272° West  Level Estimated
Thu 04:10:00 PM -37.0081 174.7917 272° West  Level Estimated
Thu 04:11:00 PM -37.0081 174.7917 272° West  Level Estimated
Thu 04:12:00 PM -37.0081 174.7917 272° West  Level Estimated
Thu 04:13:00 PM -37.0081 174.7917 272° West  Level Estimated
Thu 04:14:00 PM -37.0081 174.7917 272° West  Level Estimated
Thu 04:15:00 PM -37.0081 174.7917 272° West  Level Estimated
Thu 04:16:00 PM -37.0081 174.7917 272° West  Level Estimated
Thu 04:17:00 PM -37.0081 174.7917 272° West  Level Estimated
Thu 04:18:00 PM -37.0081 174.7917 272° West  Level Estimated
Thu 04:19:00 PM -37.0081 174.7917 272° West  Level Estimated
Thu 04:20:00 PM -37.0081 174.7917 272° West  Level Estimated
Thu 04:21:00 PM -37.0081 174.7917 272° West  Level Estimated
Thu 04:22:00 PM -37.0081 174.7917 272° West  Level Estimated
Thu 04:23:00 PM -37.0081 174.7917 272° West  Level Estimated
Thu 04:24:00 PM -37.0081 174.7917 272° West  Level Estimated
Thu 04:25:00 PM -37.0081 174.7917 272° West  Level Estimated
Thu 04:26:00 PM -37.0081 174.7917 272° West  Level Estimated
Thu 04:27:00 PM -37.0081 174.7917 272° West  Level Estimated
Thu 04:28:00 PM -37.0081 174.7917 272° West  Level Estimated
Thu 04:29:00 PM -37.0081 174.7917 272° West  Level Estimated
Thu 04:30:00 PM -37.0081 174.7917 272° West  Level Estimated
Thu 04:31:00 PM -37.0081 174.7917 272° West  Level Estimated
Thu 04:32:00 PM -37.0081 174.7917 272° West  Level Estimated
Thu 04:33:00 PM -37.0081 174.7917 272° West  Level Estimated
Thu 04:34:00 PM -37.0081 174.7917 272° West  Level Estimated
Thu 04:35:00 PM -37.0081 174.7917 272° West  Level Estimated
Thu 04:36:00 PM -37.0081 174.7917 272° West  Level Estimated
Thu 04:37:00 PM -37.0081 174.7917 272° West  Level Estimated
Thu 04:38:00 PM -37.0081 174.7917 272° West  Level Estimated
Thu 04:39:00 PM -37.0081 174.7917 272° West  Level Estimated
Thu 04:40:00 PM -37.0081 174.7917 272° West  Level Estimated
Thu 04:41:00 PM -37.0081 174.7917 272° West  Level Estimated
Thu 04:42:00 PM -37.0081 174.7917 272° West  Level Estimated
Thu 04:43:00 PM -37.0081 174.7917 272° West  Level Estimated
Thu 04:44:00 PM -37.0081 174.7917 272° West  Level Estimated
Thu 04:45:00 PM -37.0081 174.7917 272° West  Level Estimated
Thu 04:46:00 PM -37.0081 174.7917 272° West  Level Estimated
Thu 04:47:00 PM -37.0081 174.7917 272° West  Level Estimated
Thu 04:48:00 PM -37.0081 174.7917 272° West  Level Estimated
Thu 04:49:00 PM -37.0081 174.7917 272° West  Level Estimated
Thu 04:50:00 PM -37.0081 174.7917 272° West  Level Estimated
Thu 04:51:00 PM -37.0081 174.7917 272° West  Level Estimated
Thu 04:52:00 PM -37.0081 174.7917 272° West  Level Estimated
Thu 04:53:00 PM -37.0081 174.7917 272° West  Level Estimated
Thu 04:54:00 PM -37.0081 174.7917 272° West  Level Estimated
Thu 04:55:00 PM -37.0081 174.7917 272° West  Level Estimated
Thu 04:56:00 PM -37.0081 174.7917 272° West  Level Estimated
Thu 04:57:00 PM -37.0081 174.7917 272° West  Level Estimated
Thu 04:58:00 PM -37.0081 174.7917 272° West  Level Estimated
Thu 04:59:00 PM -37.0081 174.7917 272° West  Level Estimated
Thu 05:00:00 PM -37.0081 174.7917 272° West  Level Estimated
Thu 05:01:00 PM -37.0081 174.7917 272° West  Level Estimated
Thu 05:02:00 PM -37.0081 174.7917 272° West  Level Estimated
Thu 05:03:00 PM -37.0081 174.7917 272° West  Level Estimated
Thu 05:04:00 PM -37.0081 174.7917 272° West  Level Estimated
Thu 05:05:00 PM -37.0081 174.7917 272° West  Level Estimated
Thu 05:06:00 PM -37.0081 174.7917 272° West  Level Estimated
Thu 05:07:00 PM -37.0081 174.7917 272° West  Level Estimated
Thu 05:08:00 PM -37.0081 174.7917 272° West  Level Estimated
Thu 05:09:00 PM -37.0081 174.7917 272° West  Level Estimated
Thu 05:10:00 PM -37.0081 174.7917 272° West  Level Estimated
Thu 05:11:00 PM -37.0081 174.7917 272° West  Level Estimated
Thu 05:12:00 PM -37.0081 174.7917 272° West  Level Estimated
Thu 05:13:00 PM -37.0081 174.7917 272° West  Level Estimated
Thu 05:14:00 PM -37.0081 174.7917 272° West  Level Estimated
Thu 05:15:00 PM -37.0081 174.7917 272° West  Level Estimated
Thu 05:16:00 PM -37.0081 174.7917 272° West  Level Estimated
Thu 05:17:00 PM -37.0081 174.7917 272° West  Level Estimated
Thu 05:18:00 PM -37.0081 174.7917 272° West  Level Estimated
Thu 05:19:00 PM -37.0081 174.7917 272° West  Level Estimated
Thu 05:20:00 PM -37.0081 174.7917 272° West  Level Estimated
Thu 05:21:00 PM -37.0081 174.7917 272° West  Level Estimated
Thu 05:22:00 PM -37.0081 174.7917 272° West  Level Estimated
Thu 05:23:00 PM -37.0081 174.7917 272° West  Level Estimated
Thu 05:24:00 PM -37.0081 174.7917 272° West  Level Estimated
Thu 05:25:00 PM -37.0081 174.7917 272° West  Level Estimated
Thu 05:26:00 PM -37.0081 174.7917 272° West  Level Estimated
Thu 05:27:00 PM -37.0081 174.7917 272° West  Level Estimated
Thu 05:28:00 PM -37.0081 174.7917 272° West  Level Estimated
Thu 05:29:00 PM -37.0081 174.7917 272° West  Level Estimated
Thu 05:30:00 PM -37.0081 174.7917 272° West  Level Estimated
Thu 05:31:00 PM -37.0081 174.7917 272° West  Level Estimated
Thu 05:32:00 PM -37.0081 174.7917 272° West  Level Estimated
Thu 05:33:00 PM -37.0081 174.7917 272° West  Level Estimated
Thu 05:34:00 PM -37.0081 174.7917 272° West  Level Estimated
Thu 05:35:00 PM -37.0081 174.7917 272° West  Level Estimated
Thu 05:36:00 PM -37.0081 174.7917 272° West  Level Estimated
Thu 05:37:00 PM -37.0081 174.7917 272° West  Level Estimated
Thu 05:38:00 PM -37.0081 174.7917 272° West  Level Estimated
Thu 05:39:00 PM -37.0081 174.7917 272° West  Level Estimated
Thu 05:40:00 PM -37.0081 174.7917 272° West  Level Estimated
Thu 05:41:00 PM -37.0081 174.7917 272° West  Level Estimated
Thu 05:42:00 PM -37.0081 174.7917 272° West  Level Estimated
Thu 05:43:00 PM -37.0081 174.7917 272° West  Level Estimated
Thu 05:44:00 PM -37.0081 174.7917 272° West  Level Estimated
Thu 05:45:00 PM -37.0081 174.7917 272° West  Level Estimated
Thu 05:46:00 PM -37.0081 174.7917 272° West  Level Estimated
Thu 05:47:00 PM -37.0081 174.7917 272° West  Level Estimated
Thu 05:48:00 PM -37.0081 174.7917 272° West  Level Estimated
Thu 05:49:00 PM -37.0081 174.7917 272° West  Level Estimated
Thu 05:50:00 PM -37.0081 174.7917 272° West  Level Estimated
Thu 05:51:00 PM -37.0081 174.7917 272° West  Level Estimated
Thu 05:52:00 PM -37.0081 174.7917 272° West  Level Estimated
Thu 05:53:00 PM -37.0081 174.7917 272° West  Level Estimated
Thu 05:54:00 PM -37.0081 174.7917 272° West  Level Estimated
Thu 05:55:00 PM -37.0081 174.7917 272° West  Level Estimated
Thu 05:56:00 PM -37.0081 174.7917 272° West  Level Estimated
Thu 05:57:00 PM -37.0081 174.7917 272° West  Level Estimated
Thu 05:58:00 PM -37.0081 174.7917 272° West  Level Estimated
Thu 05:59:00 PM -37.0081 174.7917 272° West  Level Estimated
Thu 06:00:00 PM -37.0081 174.7917 272° West  Level Estimated
Thu 06:01:00 PM -37.0081 174.7917 272° West  Level Estimated
Thu 06:02:00 PM -37.0081 174.7917 272° West  Level Estimated
Thu 06:03:00 PM -37.0081 174.7917 272° West  Level Estimated
Thu 06:04:00 PM -37.0081 174.7917 272° West  Level Estimated
Thu 06:05:00 PM -37.0081 174.7917 272° West  Level Estimated
Thu 06:06:00 PM -37.0081 174.7917 272° West  Level Estimated
Thu 06:07:00 PM -37.0081 174.7917 272° West  Level Estimated
Thu 06:08:00 PM -37.0081 174.7917 272° West  Level Estimated
Thu 06:09:00 PM -37.0081 174.7917 272° West  Level Estimated
Thu 06:10:00 PM -37.0081 174.7917 272° West  Level Estimated
Thu 06:11:00 PM -37.0081 174.7917 272° West  Level Estimated
Thu 06:12:00 PM -37.0081 174.7917 272° West  Level Estimated
Thu 06:13:00 PM -37.0081 174.7917 272° West  Level Estimated
Thu 06:14:00 PM -37.0081 174.7917 272° West  Level Estimated
Thu 06:15:00 PM -37.0081 174.7917 272° West  Level Estimated
Thu 06:16:00 PM -37.0081 174.7917 272° West  Level Estimated
Thu 06:17:00 PM -37.0081 174.7917 272° West  Level Estimated
Thu 06:18:00 PM -37.0081 174.7917 272° West  Level Estimated
Thu 06:19:00 PM -37.0081 174.7917 272° West  Level Estimated
Thu 06:20:00 PM -37.0081 174.7917 272° West  Level Estimated
Thu 06:21:00 PM -37.0081 174.7917 272° West  Level Estimated
Thu 06:22:00 PM -37.0081 174.7917 272° West  Level Estimated
Thu 06:23:00 PM -37.0081 174.7917 272° West  Level Estimated
Thu 06:24:00 PM -37.0081 174.7917 272° West  Level Estimated
Thu 06:25:00 PM -37.0081 174.7917 272° West  Level Estimated
Thu 06:26:00 PM -37.0081 174.7917 272° West  Level Estimated
Thu 06:27:00 PM -37.0081 174.7917 272° West  Level Estimated
Thu 06:28:00 PM -37.0081 174.7917 272° West  Level Estimated
Thu 06:29:00 PM -37.0081 174.7917 272° West  Level Estimated
Thu 06:30:00 PM -37.0081 174.7917 272° West  Level Estimated
Thu 06:31:00 PM -37.0081 174.7917 272° West  Level Estimated
Thu 06:32:00 PM -37.0081 174.7917 272° West  Level Estimated
Thu 06:33:00 PM -37.0081 174.7917 272° West  Level Estimated
Thu 06:34:00 PM -37.0081 174.7917 272° West  Level Estimated
Thu 06:35:00 PM -37.0081 174.7917 272° West  Level Estimated
Thu 06:36:00 PM -37.0081 174.7917 272° West  Level Estimated
Thu 06:37:00 PM -37.0081 174.7917 272° West  Level Estimated
Thu 06:38:00 PM -37.0081 174.7917 272° West  Level Estimated
Thu 06:39:00 PM -37.0081 174.7917 272° West  Level Estimated
Thu 06:40:00 PM -37.0081 174.7917 272° West  Level Estimated
Thu 06:41:00 PM -37.0081 174.7917 272° West  Level Estimated
Thu 06:42:00 PM -37.0081 174.7917 272° West  Level Estimated
Thu 06:43:00 PM -37.0081 174.7917 272° West  Level Estimated
Thu 06:44:00 PM -37.0081 174.7917 272° West  Level Estimated
Thu 06:45:00 PM -37.0081 174.7917 272° West  Level Estimated
Thu 06:46:00 PM -37.0081 174.7917 272° West  Level Estimated
Thu 06:47:00 PM -37.0081 174.7917 272° West  Level Estimated
Thu 06:48:00 PM -37.0081 174.7917 272° West  Level Estimated
Thu 06:49:00 PM -37.0081 174.7917 272° West  Level Estimated
Thu 06:50:00 PM -37.0081 174.7917 272° West  Level Estimated
Thu 06:51:00 PM -37.0081 174.7917 272° West  Level Estimated
Thu 06:52:00 PM -37.0081 174.7917 272° West  Level Estimated
Thu 06:53:00 PM -37.0081 174.7917 272° West  Level Estimated
Thu 06:54:00 PM -37.0081 174.7917 272° West  Level Estimated
Thu 06:55:00 PM -37.0081 174.7917 272° West  Level Estimated
Thu 06:56:00 PM -37.0081 174.7917 272° West  Level Estimated
Thu 06:57:00 PM -37.0081 174.7917 272° West  Level Estimated
Thu 06:58:00 PM -37.0081 174.7917 272° West  Level Estimated
Thu 06:59:00 PM -37.0081 174.7917 272° West  Level Estimated
Thu 07:00:00 PM -37.0081 174.7917 272° West  Level Estimated
Thu 07:01:00 PM -37.0081 174.7917 272° West  Level Estimated
Thu 07:02:00 PM -37.0081 174.7917 272° West  Level Estimated
Thu 07:03:00 PM -37.0081 174.7917 272° West  Level Estimated
Thu 07:04:00 PM -37.0081 174.7917 272° West  Level Estimated
Thu 07:05:00 PM -37.0081 174.7917 272° West  Level Estimated
Thu 07:06:00 PM -37.0081 174.7917 272° West  Level Estimated
Thu 07:07:00 PM -37.0081 174.7917 272° West  Level Estimated
Thu 07:08:00 PM -37.0081 174.7917 272° West  Level Estimated
Thu 07:09:00 PM -37.0081 174.7917 272° West  Level Estimated
Thu 07:10:00 PM -37.0081 174.7917 272° West  Level Estimated
Thu 07:11:00 PM -37.0081 174.7917 272° West  Level Estimated
Thu 07:12:00 PM -37.0081 174.7917 272° West  Level Estimated
Thu 07:13:00 PM -37.0081 174.7917 272° West  Level Estimated
Thu 07:14:00 PM -37.0081 174.7917 272° West  Level Estimated
Thu 07:15:00 PM -37.0081 174.7917 272° West  Level Estimated
Thu 07:16:00 PM -37.0081 174.7917 272° West  Level Estimated
Thu 07:17:00 PM -37.0081 174.7917 272° West  Level Estimated
Thu 07:18:00 PM -37.0081 174.7917 272° West  Level Estimated
Thu 07:19:00 PM -37.0081 174.7917 272° West  Level Estimated
Thu 07:20:00 PM -37.0081 174.7917 272° West  Level Estimated
Thu 07:21:00 PM -37.0081 174.7917 272° West  Level Estimated
Thu 07:22:00 PM -37.0081 174.7917 272° West  Level Estimated
Thu 07:23:00 PM -37.0081 174.7917 272° West  Level Estimated
Thu 07:24:00 PM -37.0081 174.7917 272° West  Level Estimated
Thu 07:25:00 PM -37.0081 174.7917 272° West  Level Estimated
Thu 07:26:00 PM -37.0081 174.7917 272° West  Level Estimated
Thu 07:27:00 PM -37.0081 174.7917 272° West  Level Estimated
Thu 07:28:00 PM -37.0081 174.7917 272° West  Level Estimated
Thu 07:29:00 PM -37.0081 174.7917 272° West  Level Estimated
Thu 07:30:00 PM -37.0081 174.7917 272° West  Level Estimated
Thu 07:31:00 PM -37.0081 174.7917 272° West  Level Estimated
Thu 07:32:00 PM -37.0081 174.7917 272° West  Level Estimated
Thu 07:33:00 PM -37.0081 174.7917 272° West  Level Estimated
Thu 07:34:00 PM -37.0081 174.7917 272° West  Level Estimated
Thu 07:35:00 PM -37.0081 174.7917 272° West  Level Estimated
Thu 07:36:00 PM -37.0081 174.7917 272° West  Level Estimated
Thu 07:37:00 PM -37.0081 174.7917 272° West  Level Estimated
Thu 07:38:00 PM -37.0081 174.7917 272° West  Level Estimated
Thu 07:39:00 PM -37.0081 174.7917 272° West  Level Estimated
Thu 07:40:00 PM -37.0081 174.7917 272° West  Level Estimated
Thu 07:41:00 PM -37.0081 174.7917 272° West  Level Estimated
Thu 07:42:00 PM -37.0081 174.7917 272° West  Level Estimated
Thu 07:43:00 PM -37.0081 174.7917 272° West  Level Estimated
Thu 07:44:00 PM -37.0081 174.7917 272° West  Level Estimated
Thu 07:45:00 PM -37.0081 174.7917 272° West  Level Estimated
Thu 07:46:00 PM -37.0081 174.7917 272° West  Level Estimated
Thu 07:47:00 PM -37.0081 174.7917 272° West  Level Estimated
Thu 07:48:00 PM -37.0081 174.7917 272° West  Level Estimated
Thu 07:49:00 PM -37.0081 174.7917 272° West  Level Estimated
Thu 07:50:00 PM -37.0081 174.7917 272° West  Level Estimated
Thu 07:51:00 PM -37.0081 174.7917 272° West  Level Estimated
Thu 07:52:00 PM -37.0081 174.7917 272° West  Level Estimated
Thu 07:53:00 PM -37.0081 174.7917 272° West  Level Estimated
Thu 07:54:00 PM -37.0081 174.7917 272° West  Level Estimated
Thu 07:55:00 PM -37.0081 174.7917 272° West  Level Estimated
Thu 07:56:00 PM -37.0081 174.7917 272° West  Level Estimated
Thu 07:57:00 PM -37.0081 174.7917 272° West  Level Estimated
Thu 07:58:00 PM -37.0081 174.7917 272° West  Level Estimated
Thu 07:59:00 PM -37.0081 174.7917 272° West  Level Estimated
Thu 08:00:00 PM -37.0081 174.7917 272° West  Level Estimated
Thu 08:01:00 PM -37.0081 174.7917 272° West  Level Estimated
Thu 08:02:00 PM -37.0081 174.7917 272° West  Level Estimated
Thu 08:03:00 PM -37.0081 174.7917 272° West  Level Estimated
Thu 08:04:00 PM -37.0081 174.7917 272° West  Level Estimated
Thu 08:05:00 PM -37.0081 174.7917 272° West  Level Estimated
Thu 08:06:00 PM -37.0081 174.7917 272° West  Level Estimated
Thu 08:07:00 PM -37.0081 174.7917 272° West  Level Estimated
Thu 08:08:00 PM -37.0081 174.7917 272° West  Level Estimated
Thu 08:09:00 PM -37.0081 174.7917 272° West  Level Estimated
Thu 08:10:00 PM -37.0081 174.7917 272° West  Level Estimated
Thu 08:11:00 PM -37.0081 174.7917 272° West  Level Estimated
Thu 08:12:00 PM -37.0081 174.7917 272° West  Level Estimated
Thu 08:13:00 PM -37.0081 174.7917 272° West  Level Estimated
Thu 08:14:00 PM -37.0081 174.7917 272° West  Level Estimated
Thu 08:15:00 PM -37.0081 174.7917 272° West  Level Estimated
Thu 08:16:00 PM -37.0081 174.7917 272° West  Level Estimated
Thu 08:17:00 PM -37.0081 174.7917 272° West  Level Estimated
Thu 08:18:00 PM -37.0081 174.7917 272° West  Level Estimated
Thu 08:19:00 PM -37.0081 174.7917 272° West  Level Estimated
Thu 08:20:00 PM -37.0081 174.7917 272° West  Level Estimated
Thu 08:21:00 PM -37.0081 174.7917 272° West  Level Estimated
Thu 08:22:00 PM -37.0081 174.7917 272° West  Level Estimated
Thu 08:23:00 PM -37.0081 174.7917 272° West  Level Estimated
Thu 08:24:00 PM -37.0081 174.7917 272° West  Level Estimated
Thu 08:25:00 PM -37.0081 174.7917 272° West  Level Estimated
Thu 08:26:00 PM -37.0081 174.7917 272° West  Level Estimated
Thu 08:27:00 PM -37.0081 174.7917 272° West  Level Estimated
Thu 08:28:00 PM -37.0081 174.7917 272° West  Level Estimated
Thu 08:29:00 PM -37.0081 174.7917 272° West  Level Estimated
Thu 08:30:00 PM -37.0081 174.7917 272° West  Level Estimated
Thu 08:31:00 PM -37.0081 174.7917 272° West  Level Estimated
Thu 08:32:00 PM -37.0081 174.7917 272° West  Level Estimated
Thu 08:33:00 PM -37.0081 174.7917 272° West  Level Estimated
Thu 08:34:00 PM -37.0081 174.7917 272° West  Level Estimated
Thu 08:35:00 PM -37.0081 174.7917 272° West  Level Estimated
Thu 08:36:00 PM -37.0081 174.7917 272° West  Level Estimated
Thu 08:37:00 PM -37.0081 174.7917 272° West  Level Estimated
Thu 08:38:00 PM -37.0081 174.7917 272° West  Level Estimated
Thu 08:39:00 PM -37.0081 174.7917 272° West  Level Estimated
Thu 08:40:00 PM -37.0081 174.7917 272° West  Level Estimated
Thu 08:41:00 PM -37.0081 174.7917 272° West  Level Estimated
Thu 08:42:00 PM -37.0081 174.7917 272° West  Level Estimated
Thu 08:43:00 PM -37.0081 174.7917 272° West  Level Estimated
Thu 08:44:00 PM -37.0081 174.7917 272° West  Level Estimated
Thu 08:45:00 PM -37.0081 174.7917 272° West  Level Estimated
Thu 08:46:00 PM -37.0081 174.7917 272° West  Level Estimated
Thu 08:47:00 PM -37.0081 174.7917 272° West  Level Estimated
Thu 08:48:00 PM -37.0081 174.7917 272° West  Level Estimated
Thu 08:49:00 PM -37.0081 174.7917 272° West  Level Estimated
Thu 08:50:00 PM -37.0081 174.7917 272° West  Level Estimated
Thu 08:51:00 PM -37.0081 174.7917 272° West  Level Estimated
Thu 08:52:00 PM -37.0081 174.7917 272° West  Level Estimated
Thu 08:53:00 PM -37.0081 174.7917 272° West  Level Estimated
Thu 08:54:00 PM -37.0081 174.7917 272° West  Level Estimated
Thu 08:55:00 PM -37.0081 174.7917 272° West  Level Estimated
Thu 08:56:00 PM -37.0081 174.7917 272° West  Level Estimated
Thu 08:57:00 PM -37.0081 174.7917 272° West  Level Estimated
Thu 08:58:00 PM -37.0081 174.7917 272° West  Level Estimated
Thu 08:59:00 PM -37.0081 174.7917 272° West  Level Estimated
Thu 09:00:00 PM -37.0081 174.7917 272° West  Level Estimated
Thu 09:01:00 PM -37.0081 174.7917 272° West  Level Estimated
Thu 09:02:00 PM -37.0081 174.7917 272° West  Level Estimated
Thu 09:03:00 PM -37.0081 174.7917 272° West  Level Estimated
Thu 09:04:00 PM -37.0081 174.7917 272° West  Level Estimated
Thu 09:05:00 PM -37.0081 174.7917 272° West  Level Estimated
Thu 09:06:00 PM -37.0081 174.7917 272° West  Level Estimated
Thu 09:07:00 PM -37.0081 174.7917 272° West  Level Estimated
Thu 09:08:00 PM -37.0081 174.7917 272° West  Level Estimated
Thu 09:09:00 PM -37.0081 174.7917 272° West  Level Estimated
Thu 09:10:00 PM -37.0081 174.7917 272° West  Level Estimated
Thu 09:11:00 PM -37.0081 174.7917 272° West  Level Estimated
Thu 09:12:00 PM -37.0081 174.7917 272° West  Level Estimated
Thu 09:13:00 PM -37.0081 174.7917 272° West  Level Estimated
Thu 09:14:00 PM -37.0081 174.7917 272° West  Level Estimated
Thu 09:15:00 PM -37.0081 174.7917 272° West  Level Estimated
Thu 09:16:00 PM -37.0081 174.7917 272° West  Level Estimated
Thu 09:17:00 PM -37.0081 174.7917 272° West  Level Estimated
Thu 09:18:00 PM -37.0081 174.7917 272° West  Level Estimated
Thu 09:19:00 PM -37.0081 174.7917 272° West  Level Estimated
Thu 09:20:00 PM -37.0081 174.7917 272° West  Level Estimated
Thu 09:21:00 PM -37.0081 174.7917 272° West  Level Estimated
Thu 09:22:00 PM -37.0081 174.7917 272° West  Level Estimated
Thu 09:23:00 PM -37.0081 174.7917 272° West  Level Estimated
Thu 09:24:00 PM -37.0081 174.7917 272° West  Level Estimated
Thu 09:25:00 PM -37.0081 174.7917 272° West  Level Estimated
Thu 09:26:00 PM -37.0081 174.7917 272° West  Level Estimated
Thu 09:27:00 PM -37.0081 174.7917 272° West  Level Estimated
Thu 09:28:00 PM -37.0081 174.7917 272° West  Level Estimated
Thu 09:29:00 PM -37.0081 174.7917 272° West  Level Estimated
Thu 09:30:00 PM -37.0081 174.7917 272° West  Level Estimated
Thu 09:31:00 PM -37.0081 174.7917 272° West  Level Estimated
Thu 09:32:00 PM -37.0081 174.7917 272° West  Level Estimated
Thu 09:33:00 PM -37.0081 174.7917 272° West  Level Estimated
Thu 09:34:00 PM -37.0081 174.7917 272° West  Level Estimated
Thu 09:35:00 PM -37.0081 174.7917 272° West  Level Estimated
Thu 09:36:00 PM -37.0081 174.7917 272° West  Level Estimated
Thu 09:37:00 PM -37.0081 174.7917 272° West  Level Estimated
Thu 09:38:00 PM -37.0081 174.7917 272° West  Level Estimated
Thu 09:39:00 PM -37.0081 174.7917 272° West  Level Estimated
Thu 09:40:00 PM -37.0081 174.7917 272° West  Level Estimated
Thu 09:41:00 PM -37.0081 174.7917 272° West  Level Estimated
Thu 09:42:00 PM -37.0081 174.7917 272° West  Level Estimated
Thu 09:43:00 PM -37.0081 174.7917 272° West  Level Estimated
Thu 09:44:00 PM -37.0081 174.7917 272° West  Level Estimated
Thu 09:45:00 PM -37.0081 174.7917 272° West  Level Estimated
Thu 09:46:00 PM -37.0081 174.7917 272° West  Level Estimated
Thu 09:47:00 PM -37.0081 174.7917 272° West  Level Estimated
Thu 09:48:00 PM -37.0081 174.7917 272° West  Level Estimated
Thu 09:49:00 PM -37.0081 174.7917 272° West  Level Estimated
Thu 09:50:00 PM -37.0081 174.7917 272° West  Level Estimated
Thu 09:51:00 PM -37.0081 174.7917 272° West  Level Estimated
Thu 09:52:00 PM -37.0081 174.7917 272° West  Level Estimated
Thu 09:53:00 PM -37.0081 174.7917 272° West  Level Estimated
Thu 09:54:00 PM -37.0081 174.7917 272° West  Level Estimated
Thu 09:55:00 PM -37.0081 174.7917 272° West  Level Estimated
Thu 09:56:00 PM -37.0081 174.7917 272° West  Level Estimated
Thu 09:57:00 PM -37.0081 174.7917 272° West  Level Estimated
Thu 09:58:00 PM -37.0081 174.7917 272° West  Level Estimated
Thu 09:59:00 PM -37.0081 174.7917 272° West  Level Estimated
Thu 10:00:00 PM -37.0081 174.7917 272° West  Level Estimated
Thu 10:01:00 PM -37.0081 174.7917 272° West  Level Estimated
Thu 10:02:00 PM -37.0081 174.7917 272° West  Level Estimated
Thu 10:03:00 PM -37.0081 174.7917 272° West  Level Estimated
Thu 10:04:00 PM -37.0081 174.7917 272° West  Level Estimated
Thu 10:05:00 PM -37.0081 174.7917 272° West  Level Estimated
Thu 10:06:00 PM -37.0081 174.7917 272° West  Level Estimated
Thu 10:07:00 PM -37.0081 174.7917 272° West  Level Estimated
Thu 10:08:00 PM -37.0081 174.7917 272° West  Level Estimated
Thu 10:09:00 PM -37.0081 174.7917 272° West  Level Estimated
Thu 10:10:00 PM -37.0081 174.7917 272° West  Level Estimated
Thu 10:11:00 PM -37.0081 174.7917 272° West  Level Estimated
Thu 10:12:00 PM -37.0081 174.7917 272° West  Level Estimated
Thu 10:13:00 PM -37.0081 174.7917 272° West  Level Estimated
Thu 10:14:00 PM -37.0081 174.7917 272° West  Level Estimated
Thu 10:15:00 PM -37.0081 174.7917 272° West  Level Estimated
Thu 10:16:00 PM -37.0081 174.7917 272° West  Level Estimated
Thu 10:17:00 PM -37.0081 174.7917 272° West  Level Estimated
Thu 10:18:00 PM -37.0081 174.7917 272° West  Level Estimated
Thu 10:19:00 PM -37.0081 174.7917 272° West  Level Estimated
Thu 10:20:00 PM -37.0081 174.7917 272° West  Level Estimated
Thu 10:21:00 PM -37.0081 174.7917 272° West  Level Estimated
Thu 10:22:00 PM -37.0081 174.7917 272° West  Level Estimated
Thu 10:23:00 PM -37.0081 174.7917 272° West  Level Estimated
Thu 10:24:00 PM -37.0081 174.7917 272° West  Level Estimated
Thu 10:25:00 PM -37.0081 174.7917 272° West  Level Estimated
Thu 10:26:00 PM -37.0081 174.7917 272° West  Level Estimated
Thu 10:27:00 PM -37.0081 174.7917 272° West  Level Estimated
Thu 10:28:00 PM -37.0081 174.7917 272° West  Level Estimated
Thu 10:29:00 PM -37.0081 174.7917 272° West  Level Estimated
Thu 10:30:00 PM -37.0081 174.7917 272° West  Level Estimated
Thu 10:31:00 PM -37.0081 174.7917 272° West  Level Estimated
Thu 10:32:00 PM -37.0081 174.7917 272° West  Level Estimated
Thu 10:33:00 PM -37.0081 174.7917 272° West  Level Estimated
Thu 10:34:00 PM -37.0081 174.7917 272° West  Level Estimated
Thu 10:35:00 PM -37.0081 174.7917 272° West  Level Estimated
Thu 10:36:00 PM -37.0081 174.7917 272° West  Level Estimated
Thu 10:37:00 PM -37.0081 174.7917 272° West  Level Estimated
Thu 10:38:00 PM -37.0081 174.7917 272° West  Level Estimated
Thu 10:39:00 PM -37.0081 174.7917 272° West  Level Estimated
Thu 10:40:00 PM -37.0081 174.7917 272° West  Level Estimated
Thu 10:41:00 PM -37.0081 174.7917 272° West  Level Estimated
Thu 10:42:00 PM -37.0081 174.7917 272° West  Level Estimated
Thu 10:43:00 PM -37.0081 174.7917 272° West  Level Estimated
Thu 10:44:00 PM -37.0081 174.7917 272° West  Level Estimated
Thu 10:45:00 PM -37.0081 174.7917 272° West  Level Estimated
Thu 10:46:00 PM -37.0081 174.7917 272° West  Level Estimated
Thu 10:47:00 PM -37.0081 174.7917 272° West  Level Estimated
Thu 10:48:00 PM -37.0081 174.7917 272° West  Level Estimated
Thu 10:49:00 PM -37.0081 174.7917 272° West  Level Estimated
Thu 10:50:00 PM -37.0081 174.7917 272° West  Level Estimated
Thu 10:51:00 PM -37.0081 174.7917 272° West  Level Estimated
Thu 10:52:00 PM -37.0081 174.7917 272° West  Level Estimated
Thu 10:53:00 PM -37.0081 174.7917 272° West  Level Estimated
Thu 10:54:00 PM -37.0081 174.7917 272° West  Level Estimated
Thu 10:55:00 PM -37.0081 174.7917 272° West  Level Estimated
Thu 10:56:00 PM -37.0081 174.7917 272° West  Level Estimated
Thu 10:57:00 PM -37.0081 174.7917 272° West  Level Estimated
Thu 10:58:00 PM -37.0081 174.7917 272° West  Level Estimated
Thu 10:59:00 PM -37.0081 174.7917 272° West  Level Estimated
Thu 11:00:00 PM -37.0081 174.7917 272° West  Level Estimated
Thu 11:01:00 PM -37.0081 174.7917 272° West  Level Estimated
Thu 11:02:00 PM -37.0081 174.7917 272° West  Level Estimated
Thu 11:03:00 PM -37.0081 174.7917 272° West  Level Estimated
Thu 11:04:00 PM -37.0081 174.7917 272° West  Level Estimated
Thu 11:05:00 PM -37.0081 174.7917 272° West  Level Estimated
Thu 11:06:00 PM -37.0081 174.7917 272° West  Level Estimated
Thu 11:07:00 PM -37.0081 174.7917 272° West  Level Estimated
Thu 11:08:00 PM -37.0081 174.7917 272° West  Level Estimated
Thu 11:09:00 PM -37.0081 174.7917 272° West  Level Estimated
Thu 11:10:00 PM -37.0081 174.7917 272° West  Level Estimated
Thu 11:11:00 PM -37.0081 174.7917 272° West  Level Estimated
Thu 11:12:00 PM -37.0081 174.7917 272° West  Level Estimated
Thu 11:13:00 PM -37.0081 174.7917 272° West  Level Estimated
Thu 11:14:00 PM -37.0081 174.7917 272° West  Level Estimated
Thu 11:15:00 PM -37.0081 174.7917 272° West  Level Estimated
Thu 11:16:00 PM -37.0081 174.7917 272° West  Level Estimated
Thu 11:17:00 PM -37.0081 174.7917 272° West  Level Estimated
Thu 11:18:00 PM -37.0081 174.7917 272° West  Level Estimated
Thu 11:19:00 PM -37.0081 174.7917 272° West  Level Estimated
Thu 11:20:00 PM -37.0081 174.7917 272° West  Level Estimated
Thu 11:21:00 PM -37.0081 174.7917 272° West  Level Estimated
Thu 11:22:00 PM -37.0081 174.7917 272° West  Level Estimated
Thu 11:23:00 PM -37.0081 174.7917 272° West  Level Estimated
Thu 11:24:00 PM -37.0081 174.7917 272° West  Level Estimated
Thu 11:25:00 PM -37.0081 174.7917 272° West  Level Estimated
Thu 11:26:00 PM -37.0081 174.7917 272° West  Level Estimated
Thu 11:27:00 PM -37.0081 174.7917 272° West  Level Estimated
Thu 11:28:00 PM -37.0081 174.7917 272° West  Level Estimated
Thu 11:29:00 PM -37.0081 174.7917 272° West  Level Estimated
Thu 11:30:00 PM -37.0081 174.7917 272° West  Level Estimated
Thu 11:31:00 PM -37.0081 174.7917 272° West  Level Estimated
Thu 11:32:00 PM -37.0081 174.7917 272° West  Level Estimated
Thu 11:33:00 PM -37.0081 174.7917 272° West  Level Estimated
Thu 11:34:00 PM -37.0081 174.7917 272° West  Level Estimated
Thu 11:35:00 PM -37.0081 174.7917 272° West  Level Estimated
Thu 11:36:00 PM -37.0081 174.7917 272° West  Level Estimated
Thu 11:37:00 PM -37.0081 174.7917 272° West  Level Estimated
Thu 11:38:00 PM -37.0081 174.7917 272° West  Level Estimated
Thu 11:39:00 PM -37.0081 174.7917 272° West  Level Estimated
Thu 11:40:00 PM -37.0081 174.7917 272° West  Level Estimated
Thu 11:41:00 PM -37.0081 174.7917 272° West  Level Estimated
Thu 11:42:00 PM -37.0081 174.7917 272° West  Level Estimated
Thu 11:43:00 PM -37.0081 174.7917 272° West  Level Estimated
Thu 11:44:00 PM -37.0081 174.7917 272° West  Level Estimated
Thu 11:45:00 PM -37.0081 174.7917 272° West  Level Estimated
Thu 11:46:00 PM -37.0081 174.7917 272° West  Level Estimated
Thu 11:47:00 PM -37.0081 174.7917 272° West  Level Estimated
Thu 11:48:00 PM -37.0081 174.7917 272° West  Level Estimated
Thu 11:49:00 PM -37.0081 174.7917 272° West  Level Estimated
Thu 11:50:00 PM -37.0081 174.7917 272° West  Level Estimated
Thu 11:51:00 PM -37.0081 174.7917 272° West  Level Estimated
Thu 11:52:00 PM -37.0081 174.7917 272° West  Level Estimated
Thu 11:53:00 PM -37.0081 174.7917 272° West  Level Estimated
Thu 11:54:00 PM -37.0081 174.7917 272° West  Level Estimated
Thu 11:55:00 PM -37.0081 174.7917 272° West  Level Estimated
Thu 11:56:00 PM -37.0081 174.7917 272° West  Level Estimated
Thu 11:57:00 PM -37.0081 174.7917 272° West  Level Estimated
Thu 11:58:00 PM -37.0081 174.7917 272° West  Level Estimated
Thu 11:59:00 PM -37.0081 174.7917 272° West  Level Estimated
Fri 12:00:00 AM -37.0081 174.7917 272° West  Level Estimated
Fri 12:01:00 AM -37.0081 174.7917 272° West  Level Estimated
Fri 12:02:00 AM -37.0081 174.7917 272° West  Level Estimated
Fri 12:03:00 AM -37.0081 174.7917 272° West  Level Estimated
Fri 12:04:00 AM -37.0081 174.7917 272° West  Level Estimated
Fri 12:05:00 AM -37.0081 174.7917 272° West  Level Estimated
Fri 12:06:00 AM -37.0081 174.7917 272° West  Level Estimated
Fri 12:07:00 AM -37.0081 174.7917 272° West  Level Estimated
Fri 12:08:00 AM -37.0081 174.7917 272° West  Level Estimated
Fri 12:09:00 AM -37.0081 174.7917 272° West  Level Estimated
Fri 12:10:00 AM -37.0081 174.7917 272° West  Level Estimated
Fri 12:11:00 AM -37.0081 174.7917 272° West  Level Estimated
Fri 12:12:00 AM -37.0081 174.7917 272° West  Level Estimated
Fri 12:13:00 AM -37.0081 174.7917 272° West  Level Estimated
Fri 12:14:00 AM -37.0081 174.7917 272° West  Level Estimated
Fri 12:15:00 AM -37.0081 174.7917 272° West  Level Estimated
Fri 12:16:00 AM -37.0081 174.7917 272° West  Level Estimated
Fri 12:17:00 AM -37.0081 174.7917 272° West  Level Estimated
Fri 12:18:00 AM -37.0081 174.7917 272° West  Level Estimated
Fri 12:19:00 AM -37.0081 174.7917 272° West  Level Estimated
Fri 12:20:00 AM -37.0081 174.7917 272° West  Level Estimated
Fri 12:21:00 AM -37.0081 174.7917 272° West  Level Estimated
Fri 12:22:00 AM -37.0081 174.7917 272° West  Level Estimated
Fri 12:23:00 AM -37.0081 174.7917 272° West  Level Estimated
Fri 12:24:00 AM -37.0081 174.7917 272° West  Level Estimated
Fri 12:25:00 AM -37.0081 174.7917 272° West  Level Estimated
Fri 12:26:00 AM -37.0081 174.7917 272° West  Level Estimated
Fri 12:27:00 AM -37.0081 174.7917 272° West  Level Estimated
Fri 12:28:00 AM -37.0081 174.7917 272° West  Level Estimated
Fri 12:29:00 AM -37.0081 174.7917 272° West  Level Estimated
Fri 12:30:00 AM -37.0081 174.7917 272° West  Level Estimated
Fri 12:31:00 AM -37.0081 174.7917 272° West  Level Estimated
Fri 12:32:00 AM -37.0081 174.7917 272° West  Level Estimated
Fri 12:33:00 AM -37.0081 174.7917 272° West  Level Estimated
Fri 12:34:00 AM -37.0081 174.7917 272° West  Level Estimated
Fri 12:35:00 AM -37.0081 174.7917 272° West  Level Estimated
Fri 12:36:00 AM -37.0081 174.7917 272° West  Level Estimated
Fri 12:37:00 AM -37.0081 174.7917 272° West  Level Estimated
Fri 12:38:00 AM -37.0081 174.7917 272° West  Level Estimated
Fri 12:39:00 AM -37.0081 174.7917 272° West  Level Estimated
Fri 12:40:00 AM -37.0081 174.7917 272° West  Level Estimated
Fri 12:41:00 AM -37.0081 174.7917 272° West  Level Estimated
Fri 12:42:00 AM -37.0081 174.7917 272° West  Level Estimated
Fri 12:43:00 AM -37.0081 174.7917 272° West  Level Estimated
Fri 12:44:00 AM -37.0081 174.7917 272° West  Level Estimated
Fri 12:45:00 AM -37.0081 174.7917 272° West  Level Estimated
Fri 12:46:00 AM -37.0081 174.7917 272° West  Level Estimated
Fri 12:47:00 AM -37.0081 174.7917 272° West  Level Estimated
Fri 12:48:00 AM -37.0081 174.7917 272° West  Level Estimated
Fri 12:49:00 AM -37.0081 174.7917 272° West  Level Estimated
Fri 12:50:00 AM -37.0081 174.7917 272° West  Level Estimated
Fri 12:51:00 AM -37.0081 174.7917 272° West  Level Estimated
Fri 12:52:00 AM -37.0081 174.7917 272° West  Level Estimated
Fri 12:53:00 AM -37.0081 174.7917 272° West  Level Estimated
Fri 12:54:00 AM -37.0081 174.7917 272° West  Level Estimated
Fri 12:55:00 AM -37.0081 174.7917 272° West  Level Estimated
Fri 12:56:00 AM -37.0081 174.7917 272° West  Level Estimated
Fri 12:57:00 AM -37.0081 174.7917 272° West  Level Estimated
Fri 12:58:00 AM -37.0081 174.7917 272° West  Level Estimated
Fri 12:59:00 AM -37.0081 174.7917 272° West  Level Estimated
Fri 01:00:00 AM -37.0081 174.7917 272° West  Level Estimated
Fri 01:01:00 AM -37.0081 174.7917 272° West  Level Estimated
Fri 01:02:00 AM -37.0081 174.7917 272° West  Level Estimated
Fri 01:03:00 AM -37.0081 174.7917 272° West  Level Estimated
Fri 01:04:00 AM -37.0081 174.7917 272° West  Level Estimated
Fri 01:05:00 AM -37.0081 174.7917 272° West  Level Estimated
Fri 01:06:00 AM -37.0081 174.7917 272° West  Level Estimated
Fri 01:07:00 AM -37.0081 174.7917 272° West  Level Estimated
Fri 01:08:00 AM -37.0081 174.7917 272° West  Level Estimated
Fri 01:09:00 AM -37.0081 174.7917 140° Southeast  Level Estimated
Fri 01:10:00 AM -37.0081 174.7917 272° West  Level Estimated
Fri 01:11:00 AM -37.0081 174.7917 272° West  Level Estimated
Fri 01:12:00 AM -37.0081 174.7917 272° West  Level Estimated
Fri 01:13:00 AM -37.0081 174.7917 272° West  Level Estimated
Fri 01:14:00 AM -37.0081 174.7917 272° West  Level Estimated
Fri 01:15:00 AM -37.0081 174.7917 272° West  Level Estimated
Fri 01:16:00 AM -37.0081 174.7917 272° West  Level Estimated
Fri 01:17:00 AM -37.0081 174.7917 272° West  Level Estimated
Fri 01:18:00 AM -37.0081 174.7917 272° West  Level Estimated
Fri 01:19:00 AM -37.0081 174.7917 272° West  Level Estimated
Fri 01:20:00 AM -37.0081 174.7917 272° West  Level Estimated
Fri 01:21:00 AM -37.0081 174.7917 96° East  Level Estimated
Fri 01:22:00 AM -37.0081 174.7917 272° West  Level Estimated
Fri 01:23:00 AM -37.0081 174.7917 272° West  Level Estimated
Fri 01:24:00 AM -37.0081 174.7917 272° West  Level Estimated
Fri 01:25:00 AM -37.0081 174.7917 272° West  Level Estimated
Fri 01:26:00 AM -37.0081 174.7917 272° West  Level Estimated
Fri 01:27:00 AM -37.0081 174.7917 272° West  Level Estimated
Fri 01:28:00 AM -37.0081 174.7917 272° West  Level Estimated
Fri 01:29:00 AM -37.0081 174.7917 272° West  Level Estimated
Fri 01:30:00 AM -37.0081 174.7917 272° West  Level Estimated
Fri 01:31:00 AM -37.0081 174.7917 272° West  Level Estimated
Fri 01:32:00 AM -37.0081 174.7917 272° West  Level Estimated
Fri 01:33:00 AM -37.0081 174.7917 272° West  Level Estimated
Fri 01:34:00 AM -37.0081 174.7917 272° West  Level Estimated
Fri 01:35:00 AM -37.0081 174.7917 272° West  Level Estimated
Fri 01:36:00 AM -37.0081 174.7917 272° West  Level Estimated
Fri 01:37:00 AM -37.0081 174.7917 272° West  Level Estimated
Fri 01:38:00 AM -37.0081 174.7917 272° West  Level Estimated
Fri 01:39:00 AM -37.0081 174.7917 272° West  Level Estimated
Fri 01:40:00 AM -37.0081 174.7917 272° West  Level Estimated
Fri 01:41:00 AM -37.0081 174.7917 272° West  Level Estimated
Fri 01:42:00 AM -37.0081 174.7917 272° West  Level Estimated
Fri 01:43:00 AM -37.0081 174.7917 272° West  Level Estimated
Fri 01:44:00 AM -37.0081 174.7917 272° West  Level Estimated
Fri 01:45:00 AM -37.0081 174.7917 272° West  Level Estimated
Fri 01:46:00 AM -37.0081 174.7917 109° East  Level Estimated
Fri 01:47:00 AM -37.0081 174.7917 271° West  Level Estimated
Fri 01:48:00 AM -37.0081 174.7917 271° West  Level Estimated
Fri 01:49:00 AM -37.0081 174.7917 271° West  Level Estimated
Fri 01:50:00 AM -37.0081 174.7917 271° West  Level Estimated
Fri 01:51:00 AM -37.0081 174.7917 271° West  Level Estimated
Fri 01:52:00 AM -37.0081 174.7917 271° West  Level Estimated
Fri 01:53:00 AM -37.0081 174.7917 271° West  Level Estimated
Fri 01:54:00 AM -37.0081 174.7917 271° West  Level Estimated
Fri 01:55:00 AM -37.0081 174.7917 271° West  Level Estimated
Fri 01:56:00 AM -37.0081 174.7917 271° West  Level Estimated
Fri 01:57:00 AM -37.0081 174.7917 271° West  Level Estimated
Fri 01:58:00 AM -37.0081 174.7917 271° West  Level Estimated
Fri 01:59:00 AM -37.0081 174.7917 271° West  Level Estimated
Fri 02:00:00 AM -37.0081 174.7917 271° West  Level Estimated
Fri 02:01:00 AM -37.0081 174.7917 271° West  Level Estimated
Fri 02:02:00 AM -37.0081 174.7917 271° West  Level Estimated
Fri 02:03:00 AM -37.0081 174.7917 271° West  Level Estimated
Fri 02:04:00 AM -37.0081 174.7917 271° West  Level Estimated
Fri 02:05:00 AM -37.0081 174.7917 271° West  Level Estimated
Fri 02:06:00 AM -37.0081 174.7917 271° West  Level Estimated
Fri 02:07:00 AM -37.0081 174.7917 271° West  Level Estimated
Fri 02:08:00 AM -37.0081 174.7917 271° West  Level Estimated
Fri 02:09:00 AM -37.0081 174.7917 271° West  Level Estimated
Fri 02:10:00 AM -37.0081 174.7917 271° West  Level Estimated
Fri 02:11:00 AM -37.0081 174.7917 271° West  Level Estimated
Fri 02:12:00 AM -37.0081 174.7917 271° West  Level Estimated
Fri 02:13:00 AM -37.0081 174.7917 271° West  Level Estimated
Fri 02:14:00 AM -37.0081 174.7917 271° West  Level Estimated
Fri 02:15:00 AM -37.0081 174.7917 271° West  Level Estimated
Fri 02:16:00 AM -37.0081 174.7917 271° West  Level Estimated
Fri 02:17:00 AM -37.0081 174.7917 271° West  Level Estimated
Fri 02:18:00 AM -37.0081 174.7917 271° West  Level Estimated
Fri 02:19:00 AM -37.0081 174.7917 271° West  Level Estimated
Fri 02:20:00 AM -37.0081 174.7917 271° West  Level Estimated
Fri 02:21:00 AM -37.0081 174.7917 271° West  Level Estimated
Fri 02:22:00 AM -37.0081 174.7917 271° West  Level Estimated
Fri 02:23:00 AM -37.0081 174.7917 271° West  Level Estimated
Fri 02:24:00 AM -37.0081 174.7917 271° West  Level Estimated
Fri 02:25:00 AM -37.0081 174.7917 271° West  Level Estimated
Fri 02:26:00 AM -37.0081 174.7917 271° West  Level Estimated
Fri 02:27:00 AM -37.0081 174.7917 271° West  Level Estimated
Fri 02:28:00 AM -37.0081 174.7917 271° West  Level Estimated
Fri 02:29:00 AM -37.0081 174.7917 271° West  Level Estimated
Fri 02:30:00 AM -37.0081 174.7917 271° West  Level Estimated
Fri 02:31:00 AM -37.0081 174.7917 271° West  Level Estimated
Fri 02:32:00 AM -37.0081 174.7917 271° West  Level Estimated
Fri 02:33:00 AM -37.0081 174.7917 271° West  Level Estimated
Fri 02:34:00 AM -37.0081 174.7917 271° West  Level Estimated
Fri 02:35:00 AM -37.0081 174.7917 271° West  Level Estimated
Fri 02:36:00 AM -37.0081 174.7917 271° West  Level Estimated
Fri 02:37:00 AM -37.0081 174.7917 271° West  Level Estimated
Fri 02:38:00 AM -37.0081 174.7917 271° West  Level Estimated
Fri 02:39:00 AM -37.0081 174.7917 271° West  Level Estimated
Fri 02:40:00 AM -37.0081 174.7917 271° West  Level Estimated
Fri 02:41:00 AM -37.0081 174.7917 271° West  Level Estimated
Fri 02:42:00 AM -37.0081 174.7917 271° West  Level Estimated
Fri 02:43:00 AM -37.0081 174.7917 271° West  Level Estimated
Fri 02:44:00 AM -37.0081 174.7917 271° West  Level Estimated
Fri 02:45:00 AM -37.0081 174.7917 271° West  Level Estimated
Fri 02:46:00 AM -37.0081 174.7917 271° West  Level Estimated
Fri 02:47:00 AM -37.0081 174.7917 271° West  Level Estimated
Fri 02:48:00 AM -37.0081 174.7917 271° West  Level Estimated
Fri 02:49:00 AM -37.0081 174.7917 271° West  Level Estimated
Fri 02:50:00 AM -37.0081 174.7917 271° West  Level Estimated
Fri 02:51:00 AM -37.0081 174.7917 271° West  Level Estimated
Fri 02:52:00 AM -37.0081 174.7917 271° West  Level Estimated
Fri 02:53:00 AM -37.0081 174.7917 271° West  Level Estimated
Fri 02:54:00 AM -37.0081 174.7917 271° West  Level Estimated
Fri 02:55:00 AM -37.0081 174.7917 271° West  Level Estimated
Fri 02:56:00 AM -37.0081 174.7917 271° West  Level Estimated
Fri 02:57:00 AM -37.0081 174.7917 271° West  Level Estimated
Fri 02:58:00 AM -37.0081 174.7917 271° West  Level Estimated
Fri 02:59:00 AM -37.0081 174.7917 271° West  Level Estimated
Fri 03:00:00 AM -37.0081 174.7917 271° West  Level Estimated
Fri 03:01:00 AM -37.0081 174.7917 271° West  Level Estimated
Fri 03:02:00 AM -37.0081 174.7917 271° West  Level Estimated
Fri 03:03:00 AM -37.0081 174.7917 271° West  Level Estimated
Fri 03:04:00 AM -37.0081 174.7917 271° West  Level Estimated
Fri 03:05:00 AM -37.0081 174.7917 271° West  Level Estimated
Fri 03:06:00 AM -37.0081 174.7917 271° West  Level Estimated
Fri 03:07:00 AM -37.0081 174.7917 271° West  Level Estimated
Fri 03:08:00 AM -37.0081 174.7917 271° West  Level Estimated
Fri 03:09:00 AM -37.0081 174.7917 271° West  Level Estimated
Fri 03:10:00 AM -37.0081 174.7917 271° West  Level Estimated
Fri 03:11:00 AM -37.0081 174.7917 271° West  Level Estimated
Fri 03:12:00 AM -37.0081 174.7917 271° West  Level Estimated
Fri 03:13:00 AM -37.0081 174.7917 271° West  Level Estimated
Fri 03:14:00 AM -37.0081 174.7917 271° West  Level Estimated
Fri 03:15:00 AM -37.0081 174.7917 271° West  Level Estimated
Fri 03:16:00 AM -37.0081 174.7917 271° West  Level Estimated
Fri 03:17:00 AM -37.0081 174.7917 271° West  Level Estimated
Fri 03:18:00 AM -37.0081 174.7917 271° West  Level Estimated
Fri 03:19:00 AM -37.0081 174.7917 271° West  Level Estimated
Fri 03:20:00 AM -37.0081 174.7917 271° West  Level Estimated
Fri 03:21:00 AM -37.0081 174.7917 271° West  Level Estimated
Fri 03:22:00 AM -37.0081 174.7917 271° West  Level Estimated
Fri 03:23:00 AM -37.0081 174.7917 271° West  Level Estimated
Fri 03:24:00 AM -37.0081 174.7917 271° West  Level Estimated
Fri 03:25:00 AM -37.0081 174.7917 271° West  Level Estimated
Fri 03:26:00 AM -37.0081 174.7917 271° West  Level Estimated
Fri 03:27:00 AM -37.0081 174.7917 271° West  Level Estimated
Fri 03:28:00 AM -37.0081 174.7917 271° West  Level Estimated
Fri 03:29:00 AM -37.0081 174.7917 271° West  Level Estimated
Fri 03:30:00 AM -37.0081 174.7917 271° West  Level Estimated
Fri 03:31:00 AM -37.0081 174.7917 271° West  Level Estimated
Fri 03:32:00 AM -37.0081 174.7917 271° West  Level Estimated
Fri 03:33:00 AM -37.0081 174.7917 271° West  Level Estimated
Fri 03:34:00 AM -37.0081 174.7917 271° West  Level Estimated
Fri 03:35:00 AM -37.0081 174.7917 271° West  Level Estimated
Fri 03:36:00 AM -37.0081 174.7917 271° West  Level Estimated
Fri 03:37:00 AM -37.0081 174.7917 271° West  Level Estimated
Fri 03:38:00 AM -37.0081 174.7917 271° West  Level Estimated
Fri 03:39:00 AM -37.0081 174.7917 271° West  Level Estimated
Fri 03:40:00 AM -37.0081 174.7917 271° West  Level Estimated
Fri 03:41:00 AM -37.0081 174.7917 271° West  Level Estimated
Fri 03:42:00 AM -37.0081 174.7917 271° West  Level Estimated
Fri 03:43:00 AM -37.0081 174.7917 108° East  Level Estimated
Fri 03:44:00 AM -37.0081 174.7917 270° West  Level Estimated
Fri 03:45:00 AM -37.0081 174.7917 270° West  Level Estimated
Fri 03:46:00 AM -37.0081 174.7917 270° West  Level Estimated
Fri 03:47:00 AM -37.0081 174.7917 270° West  Level Estimated
Fri 03:48:00 AM -37.0081 174.7917 270° West  Level Estimated
Fri 03:49:00 AM -37.0081 174.7917 270° West  Level Estimated
Fri 03:50:00 AM -37.0081 174.7917 270° West  Level Estimated
Fri 03:51:00 AM -37.0081 174.7917 270° West  Level Estimated
Fri 03:52:00 AM -37.0081 174.7917 270° West  Level Estimated
Fri 03:53:00 AM -37.0081 174.7917 270° West  Level Estimated
Fri 03:54:00 AM -37.0081 174.7917 270° West  Level Estimated
Fri 03:55:00 AM -37.0081 174.7917 270° West  Level Estimated
Fri 03:56:00 AM -37.0081 174.7917 270° West  Level Estimated
Fri 03:57:00 AM -37.0081 174.7917 270° West  Level Estimated
Fri 03:58:00 AM -37.0081 174.7917 270° West  Level Estimated
Fri 03:59:00 AM -37.0081 174.7917 270° West  Level Estimated
Fri 04:00:00 AM -37.0081 174.7917 270° West  Level Estimated
Fri 04:01:00 AM -37.0081 174.7917 270° West  Level Estimated
Fri 04:02:00 AM -37.0081 174.7917 270° West  Level Estimated
Fri 04:03:00 AM -37.0081 174.7917 270° West  Level Estimated
Fri 04:04:00 AM -37.0081 174.7917 270° West  Level Estimated
Fri 04:05:00 AM -37.0081 174.7917 270° West  Level Estimated
Fri 04:06:00 AM -37.0081 174.7917 270° West  Level Estimated
Fri 04:07:00 AM -37.0081 174.7917 270° West  Level Estimated
Fri 04:08:00 AM -37.0081 174.7917 270° West  Level Estimated
Fri 04:09:00 AM -37.0081 174.7917 270° West  Level Estimated
Fri 04:10:00 AM -37.0081 174.7917 270° West  Level Estimated
Fri 04:11:00 AM -37.0081 174.7917 270° West  Level Estimated
Fri 04:12:00 AM -37.0081 174.7917 270° West  Level Estimated
Fri 04:13:00 AM -37.0081 174.7917 270° West  Level Estimated
Fri 04:14:00 AM -37.0081 174.7917 270° West  Level Estimated
Fri 04:15:00 AM -37.0081 174.7917 270° West  Level Estimated
Fri 04:16:00 AM -37.0081 174.7917 270° West  Level Estimated
Fri 04:17:00 AM -37.0081 174.7917 270° West  Level Estimated
Fri 04:18:00 AM -37.0081 174.7917 270° West  Level Estimated
Fri 04:19:00 AM -37.0081 174.7917 270° West  Level Estimated
Fri 04:20:00 AM -37.0081 174.7917 270° West  Level Estimated
Fri 04:21:00 AM -37.0081 174.7917 270° West  Level Estimated
Fri 04:22:00 AM -37.0081 174.7917 270° West  Level Estimated
Fri 04:23:00 AM -37.0081 174.7917 270° West  Level Estimated
Fri 04:24:00 AM -37.0081 174.7917 270° West  Level Estimated
Fri 04:25:00 AM -37.0081 174.7917 270° West  Level Estimated
Fri 04:26:00 AM -37.0081 174.7917 270° West  Level Estimated
Fri 04:27:00 AM -37.0081 174.7917 270° West  Level Estimated
Fri 04:28:00 AM -37.0081 174.7917 270° West  Level Estimated
Fri 04:29:00 AM -37.0081 174.7917 270° West  Level Estimated
Fri 04:30:00 AM -37.0081 174.7917 270° West  Level Estimated
Fri 04:31:00 AM -37.0081 174.7917 270° West  Level Estimated
Fri 04:32:00 AM -37.0081 174.7917 270° West  Level Estimated
Fri 04:33:00 AM -37.0081 174.7917 270° West  Level Estimated
Fri 04:34:00 AM -37.0081 174.7917 270° West  Level Estimated
Fri 04:35:00 AM -37.0081 174.7917 270° West  Level Estimated
Fri 04:36:00 AM -37.0081 174.7917 270° West  Level Estimated
Fri 04:37:00 AM -37.0081 174.7917 270° West  Level Estimated
Fri 04:38:00 AM -37.0081 174.7917 270° West  Level Estimated
Fri 04:39:00 AM -37.0081 174.7917 270° West  Level Estimated
Fri 04:40:00 AM -37.0081 174.7917 270° West  Level Estimated
Fri 04:41:00 AM -37.0081 174.7917 270° West  Level Estimated
Fri 04:42:00 AM -37.0081 174.7917 270° West  Level Estimated
Fri 04:43:00 AM -37.0081 174.7917 270° West  Level Estimated
Fri 04:44:00 AM -37.0081 174.7917 270° West  Level Estimated
Fri 04:45:00 AM -37.0081 174.7917 270° West  Level Estimated
Fri 04:46:00 AM -37.0081 174.7917 270° West  Level Estimated
Fri 04:47:00 AM -37.0081 174.7917 270° West  Level Estimated
Fri 04:48:00 AM -37.0081 174.7917 270° West  Level Estimated
Fri 04:49:00 AM -37.0081 174.7917 270° West  Level Estimated
Fri 04:50:00 AM -37.0081 174.7917 270° West  Level Estimated
Fri 04:51:00 AM -37.0081 174.7917 270° West  Level Estimated
Fri 04:52:00 AM -37.0081 174.7917 270° West  Level Estimated
Fri 04:53:00 AM -37.0081 174.7917 270° West  Level Estimated
Fri 04:54:00 AM -37.0081 174.7917 270° West  Level Estimated
Fri 04:55:00 AM -37.0081 174.7917 270° West  Level Estimated
Fri 04:56:00 AM -37.0081 174.7917 270° West  Level Estimated
Fri 04:57:00 AM -37.0081 174.7917 270° West  Level Estimated
Fri 04:58:00 AM -37.0081 174.7917 270° West  Level Estimated
Fri 04:59:00 AM -37.0081 174.7917 270° West  Level Estimated
Fri 05:00:00 AM -37.0081 174.7917 270° West  Level Estimated
Fri 05:01:00 AM -37.0081 174.7917 270° West  Level Estimated
Fri 05:02:00 AM -37.0081 174.7917 270° West  Level Estimated
Fri 05:03:00 AM -37.0081 174.7917 270° West  Level Estimated
Fri 05:04:00 AM -37.0081 174.7917 270° West  Level Estimated
Fri 05:05:00 AM -37.0081 174.7917 270° West  Level Estimated
Fri 05:06:00 AM -37.0081 174.7917 270° West  Level Estimated
Fri 05:07:00 AM -37.0081 174.7917 270° West  Level Estimated
Fri 05:08:00 AM -37.0081 174.7917 270° West  Level Estimated
Fri 05:09:00 AM -37.0081 174.7917 270° West  Level Estimated
Fri 05:10:00 AM -37.0081 174.7917 270° West  Level Estimated
Fri 05:11:00 AM -37.0081 174.7917 270° West  Level Estimated
Fri 05:12:00 AM -37.0081 174.7917 270° West  Level Estimated
Fri 05:13:00 AM -37.0081 174.7917 270° West  Level Estimated
Fri 05:14:00 AM -37.0081 174.7917 270° West  Level Estimated
Fri 05:15:00 AM -37.0081 174.7917 270° West  Level Estimated
Fri 05:16:00 AM -37.0081 174.7917 270° West  Level Estimated
Fri 05:17:00 AM -37.0081 174.7917 270° West  Level Estimated
Fri 05:18:00 AM -37.0081 174.7917 270° West  Level Estimated
Fri 05:19:00 AM -37.0081 174.7917 270° West  Level Estimated
Fri 05:20:00 AM -37.0081 174.7917 270° West  Level Estimated
Fri 05:21:00 AM -37.0081 174.7917 270° West  Level Estimated
Fri 05:22:00 AM -37.0081 174.7917 270° West  Level Estimated
Fri 05:23:00 AM -37.0081 174.7917 270° West  Level Estimated
Fri 05:24:00 AM -37.0081 174.7917 270° West  Level Estimated
Fri 05:25:00 AM -37.0081 174.7917 270° West  Level Estimated
Fri 05:26:00 AM -37.0081 174.7917 270° West  Level Estimated
Fri 05:27:00 AM -37.0081 174.7917 270° West  Level Estimated
Fri 05:28:00 AM -37.0081 174.7917 270° West  Level Estimated
Fri 05:29:00 AM -37.0081 174.7917 270° West  Level Estimated
Fri 05:30:00 AM -37.0081 174.7917 270° West  Level Estimated
Fri 05:31:00 AM -37.0081 174.7917 270° West  Level Estimated
Fri 05:32:00 AM -37.0081 174.7917 270° West  Level Estimated
Fri 05:33:00 AM -37.0081 174.7917 270° West  Level Estimated
Fri 05:34:00 AM -37.0081 174.7917 270° West  Level Estimated
Fri 05:35:00 AM -37.0081 174.7917 270° West  Level Estimated
Fri 05:36:00 AM -37.0081 174.7917 270° West  Level Estimated
Fri 05:37:00 AM -37.0081 174.7917 270° West  Level Estimated
Fri 05:38:00 AM -37.0081 174.7917 270° West  Level Estimated
Fri 05:39:00 AM -37.0081 174.7917 270° West  Level Estimated
Fri 05:40:00 AM -37.0081 174.7917 270° West  Level Estimated
Fri 05:41:00 AM -37.0081 174.7917 270° West  Level Estimated
Fri 05:42:00 AM -37.0081 174.7917 108° East  Level Estimated
Fri 05:43:00 AM -37.0081 174.7917 108° East  Level Estimated
Fri 05:44:00 AM -37.0081 174.7917 108° East  Level Estimated
Fri 05:45:00 AM -37.0081 174.7917 108° East  Level Estimated
Fri 05:46:00 AM -37.0081 174.7917 108° East  Level Estimated
Fri 05:47:00 AM -37.0081 174.7917 108° East  Level Estimated
Fri 05:48:00 AM -37.0081 174.7917 108° East  Level Estimated
Fri 05:49:00 AM -37.0081 174.7917 108° East  Level Estimated
Fri 05:50:00 AM -37.0081 174.7917 108° East  Level Estimated
Fri 05:51:00 AM -37.0081 174.7917 108° East  Level Estimated
Fri 05:52:00 AM -37.0081 174.7917 108° East  Level Estimated
Fri 05:53:00 AM -37.0081 174.7917 108° East  Level Estimated
Fri 05:54:00 AM -37.0081 174.7917 108° East  Level Estimated
Fri 05:55:00 AM -37.0081 174.7917 108° East  Level Estimated
Fri 05:56:00 AM -37.0081 174.7917 108° East  Level Estimated
Fri 05:57:00 AM -37.0081 174.7917 108° East  Level Estimated
Fri 05:58:00 AM -37.0081 174.7917 108° East  Level Estimated
Fri 05:59:00 AM -37.0081 174.7917 108° East  Level Estimated
Fri 06:00:00 AM -37.0081 174.7917 108° East  Level Estimated
Fri 06:01:00 AM -37.0081 174.7917 108° East  Level Estimated
Fri 06:02:00 AM -37.0081 174.7917 108° East  Level Estimated
Fri 06:03:00 AM -37.0081 174.7917 108° East  Level Estimated
Fri 06:04:00 AM -37.0081 174.7917 108° East  Level Estimated
Fri 06:05:00 AM -37.0081 174.7917 108° East  Level Estimated
Fri 06:06:00 AM -37.0081 174.7917 108° East  Level Estimated
Fri 06:07:00 AM -37.0081 174.7917 108° East  Level Estimated
Fri 06:08:00 AM -37.0081 174.7917 108° East  Level Estimated
Fri 06:09:00 AM -37.0081 174.7917 108° East  Level Estimated
Fri 06:10:00 AM -37.0081 174.7917 108° East  Level Estimated
Fri 06:11:00 AM -37.0081 174.7917 108° East  Level Estimated
Fri 06:12:00 AM -37.0081 174.7917 108° East  Level Estimated
Fri 06:13:00 AM -37.0081 174.7917 108° East  Level Estimated
Fri 06:14:00 AM -37.0081 174.7917 108° East  Level Estimated
Fri 06:15:00 AM -37.0081 174.7917 108° East  Level Estimated
Fri 06:16:00 AM -37.0081 174.7917 108° East  Level Estimated
Fri 06:17:00 AM -37.0081 174.7917 108° East  Level Estimated
Fri 06:18:00 AM -37.0081 174.7917 108° East  Level Estimated
Fri 06:19:00 AM -37.0081 174.7917 108° East  Level Estimated
Fri 06:20:00 AM -37.0081 174.7917 108° East  Level Estimated
Fri 06:21:00 AM -37.0081 174.7917 108° East  Level Estimated
Fri 06:22:00 AM -37.0081 174.7917 108° East  Level Estimated
Fri 06:23:00 AM -37.0081 174.7917 108° East  Level Estimated
Fri 06:24:00 AM -37.0081 174.7917 108° East  Level Estimated
Fri 06:25:00 AM -37.0081 174.7917 108° East  Level Estimated
Fri 06:26:00 AM -37.0081 174.7917 108° East  Level Estimated
Fri 06:27:00 AM -37.0081 174.7917 108° East  Level Estimated
Fri 06:28:00 AM -37.0081 174.7917 108° East  Level Estimated
Fri 06:29:00 AM -37.0081 174.7917 108° East  Level Estimated
Fri 06:30:00 AM -37.0081 174.7917 108° East  Level Estimated
Fri 06:31:00 AM -37.0081 174.7917 108° East  Level Estimated
Fri 06:32:00 AM -37.0081 174.7917 108° East  Level Estimated
Fri 06:33:00 AM -37.0081 174.7917 108° East  Level Estimated
Fri 06:34:00 AM -37.0081 174.7917 108° East  Level Estimated
Fri 06:35:00 AM -37.0081 174.7917 108° East  Level Estimated
Fri 06:36:00 AM -37.0081 174.7917 108° East  Level Estimated
Fri 06:37:00 AM -37.0081 174.7917 108° East  Level Estimated
Fri 06:38:00 AM -37.0081 174.7917 108° East  Level Estimated
Fri 06:39:00 AM -37.0081 174.7917 108° East  Level Estimated
Fri 06:40:00 AM -37.0081 174.7917 108° East  Level Estimated
Fri 06:41:00 AM -37.0081 174.7917 108° East  Level Estimated
Fri 06:42:00 AM -37.0081 174.7917 108° East  Level Estimated
Fri 06:43:00 AM -37.0081 174.7917 108° East  Level Estimated
Fri 06:44:00 AM -37.0081 174.7917 108° East  Level Estimated
Fri 06:45:00 AM -37.0081 174.7917 108° East  Level Estimated
Fri 06:46:00 AM -37.0081 174.7917 108° East  Level Estimated
Fri 06:47:00 AM -37.0081 174.7917 108° East  Level Estimated
Fri 06:48:00 AM -37.0081 174.7917 108° East  Level Estimated
Fri 06:49:00 AM -37.0081 174.7917 108° East  Level Estimated
Fri 06:50:00 AM -37.0081 174.7917 108° East  Level Estimated
Fri 06:51:00 AM -37.0081 174.7917 108° East  Level Estimated
Fri 06:52:00 AM -37.0081 174.7917 108° East  Level Estimated
Fri 06:53:00 AM -37.0081 174.7917 108° East  Level Estimated
Fri 06:54:00 AM -37.0081 174.7917 108° East  Level Estimated
Fri 06:55:00 AM -37.0081 174.7917 108° East  Level Estimated
Fri 06:56:00 AM -37.0081 174.7917 108° East  Level Estimated
Fri 06:57:00 AM -37.0081 174.7917 108° East  Level Estimated
Fri 06:58:00 AM -37.0081 174.7917 108° East  Level Estimated
Fri 06:59:00 AM -37.0081 174.7917 108° East  Level Estimated
Fri 07:00:00 AM -37.0081 174.7917 108° East  Level Estimated
Fri 07:01:00 AM -37.0081 174.7917 108° East  Level Estimated
Fri 07:02:00 AM -37.0081 174.7917 108° East  Level Estimated
Fri 07:03:00 AM -37.0081 174.7917 108° East  Level Estimated
Fri 07:04:00 AM -37.0081 174.7917 108° East  Level Estimated
Fri 07:05:00 AM -37.0081 174.7917 108° East  Level Estimated
Fri 07:06:00 AM -37.0081 174.7917 108° East  Level Estimated
Fri 07:07:00 AM -37.0081 174.7917 108° East  Level Estimated
Fri 07:08:00 AM -37.0081 174.7917 108° East  Level Estimated
Fri 07:09:00 AM -37.0081 174.7917 108° East  Level Estimated
Fri 07:10:00 AM -37.0081 174.7917 108° East  Level Estimated
Fri 07:11:00 AM -37.0081 174.7917 108° East  Level Estimated
Fri 07:12:00 AM -37.0081 174.7917 108° East  Level Estimated
Fri 07:13:00 AM -37.0081 174.7917 108° East  Level Estimated
Fri 07:14:00 AM -37.0081 174.7917 108° East  Level Estimated
Fri 07:15:00 AM -37.0081 174.7917 108° East  Level Estimated
Fri 07:16:00 AM -37.0081 174.7917 108° East  Level Estimated
Fri 07:17:00 AM -37.0081 174.7917 108° East  Level Estimated
Fri 07:18:00 AM -37.0081 174.7917 108° East  Level Estimated
Fri 07:19:00 AM -37.0081 174.7917 108° East  Level Estimated
Fri 07:20:00 AM -37.0081 174.7917 108° East  Level Estimated
Fri 07:21:00 AM -37.0081 174.7917 108° East  Level Estimated
Fri 07:22:00 AM -37.0081 174.7917 108° East  Level Estimated
Fri 07:23:00 AM -37.0081 174.7917 108° East  Level Estimated
Fri 07:24:00 AM -37.0081 174.7917 108° East  Level Estimated
Fri 07:25:00 AM -37.0081 174.7917 108° East  Level Estimated
Fri 07:26:00 AM -37.0081 174.7917 108° East  Level Estimated
Fri 07:27:00 AM -37.0081 174.7917 108° East  Level Estimated
Fri 07:28:00 AM -37.0081 174.7917 108° East  Level Estimated
Fri 07:29:00 AM -37.0081 174.7917 108° East  Level Estimated
Fri 07:30:00 AM -37.0081 174.7917 108° East  Level Estimated
Fri 07:31:00 AM -37.0081 174.7917 108° East  Level Estimated
Fri 07:32:00 AM -37.0081 174.7917 108° East  Level Estimated
Fri 07:33:00 AM -37.0081 174.7917 108° East  Level Estimated
Fri 07:34:00 AM -37.0081 174.7917 108° East  Level Estimated
Fri 07:35:00 AM -37.0081 174.7917 108° East  Level Estimated
Fri 07:36:00 AM -37.0081 174.7917 108° East  Level Estimated
Fri 07:37:00 AM -37.0081 174.7917 108° East  Level Estimated
Fri 07:38:00 AM -37.0081 174.7917 108° East  Level Estimated
Fri 07:39:00 AM -37.0081 174.7917 108° East  Level Estimated
Fri 07:40:00 AM -37.0081 174.7917 108° East  Level Estimated
Fri 07:41:00 AM -37.0081 174.7917 108° East  Level Estimated
Fri 07:42:00 AM -37.0081 174.7917 108° East  Level Estimated
Fri 07:43:00 AM -37.0081 174.7917 108° East  Level Estimated
Fri 07:44:00 AM -37.0081 174.7917 108° East  Level Estimated
Fri 07:45:00 AM -37.0081 174.7917 108° East  Level Estimated
Fri 07:46:00 AM -37.0081 174.7917 108° East  Level Estimated
Fri 07:47:00 AM -37.0081 174.7917 108° East  Level Estimated
Fri 07:48:00 AM -37.0081 174.7917 108° East  Level Estimated
Fri 07:49:00 AM -37.0081 174.7917 108° East  Level Estimated
Fri 07:50:00 AM -37.0081 174.7917 108° East  Level Estimated
Fri 07:51:00 AM -37.0081 174.7917 108° East  Level Estimated
Fri 07:52:00 AM -37.0081 174.7917 108° East  Level Estimated
Fri 07:53:00 AM -37.0081 174.7917 108° East  Level Estimated
Fri 07:54:00 AM -37.0081 174.7917 108° East  Level Estimated
Fri 07:55:00 AM -37.0081 174.7917 108° East  Level Estimated
Fri 07:56:00 AM -37.0081 174.7917 108° East  Level Estimated
Fri 07:57:00 AM -37.0081 174.7917 108° East  Level Estimated
Fri 07:58:00 AM -37.0081 174.7917 108° East  Level Estimated
Fri 07:59:00 AM -37.0081 174.7917 108° East  Level Estimated
Fri 08:00:00 AM -37.0081 174.7917 108° East  Level Estimated
Fri 08:01:00 AM -37.0081 174.7917 108° East  Level Estimated
Fri 08:02:00 AM -37.0081 174.7917 108° East  Level Estimated
Fri 08:03:00 AM -37.0081 174.7917 108° East  Level Estimated
Fri 08:04:00 AM -37.0081 174.7917 108° East  Level Estimated
Fri 08:05:00 AM -37.0081 174.7917 108° East  Level Estimated
Fri 08:06:00 AM -37.0081 174.7917 108° East  Level Estimated
Fri 08:07:00 AM -37.0081 174.7917 108° East  Level Estimated
Fri 08:08:00 AM -37.0081 174.7917 108° East  Level Estimated
Fri 08:09:00 AM -37.0081 174.7917 108° East  Level Estimated
Fri 08:10:00 AM -37.0081 174.7917 108° East  Level Estimated
Fri 08:11:00 AM -37.0081 174.7917 108° East  Level Estimated
Fri 08:12:00 AM -37.0081 174.7917 108° East  Level Estimated
Fri 08:13:00 AM -37.0081 174.7917 108° East  Level Estimated
Fri 08:14:00 AM -37.0081 174.7917 108° East  Level Estimated
Fri 08:15:00 AM -37.0081 174.7917 108° East  Level Estimated
Fri 08:16:00 AM -37.0081 174.7917 108° East  Level Estimated
Fri 08:17:00 AM -37.0081 174.7917 108° East  Level Estimated
Fri 08:18:00 AM -37.0081 174.7917 108° East  Level Estimated
Fri 08:19:00 AM -37.0081 174.7917 108° East  Level Estimated
Fri 08:20:00 AM -37.0081 174.7917 108° East  Level Estimated
Fri 08:21:00 AM -37.0081 174.7917 108° East  Level Estimated
Fri 08:22:00 AM -37.0081 174.7917 108° East  Level Estimated
Fri 08:23:00 AM -37.0081 174.7917 108° East  Level Estimated
Fri 08:24:00 AM -37.0081 174.7917 108° East  Level Estimated
Fri 08:25:00 AM -37.0081 174.7917 108° East  Level Estimated
Fri 08:26:00 AM -37.0081 174.7917 108° East  Level Estimated
Fri 08:27:00 AM -37.0081 174.7917 108° East  Level Estimated
Fri 08:28:00 AM -37.0081 174.7917 108° East  Level Estimated
Fri 08:29:00 AM -37.0081 174.7917 108° East  Level Estimated
Fri 08:30:00 AM -37.0081 174.7917 108° East  Level Estimated
Fri 08:31:00 AM -37.0081 174.7917 108° East  Level Estimated
Fri 08:32:00 AM -37.0081 174.7917 108° East  Level Estimated

Login

Don't have an account? Register now (free) for customized features, flight alerts, and more!